<?xml version="1.0" encoding="UTF-8" standalone="no" ?>
<gpx xmlns="http://www.topografix.com/GPX/1/1" xmlns:xsi="http://www.w3.org/2001/XMLSchema-instance" xsi:schemaLocation="http://www.topografix.com/GPX/1/1 http://www.topografix.com/GPX/1/1/gpx.xsd" version="1.1" creator="VisuGPX - https://www.visugpx.com">
  <metadata>
    <name>83 - Cotignac</name>
    <desc><![CDATA[C\'est en petit comité que nous commençons cette superbe randonnée. Le bas de la falaise de Cotignac est visité pour ses habitations troglodytes puis nous contournons l\'obstacle avant de remonter le circuit dit du Petit Poucet.
La maison de Sara est une particularité car tout y est resté comme il y a pas mal d\'années (boules de pétanque comprises !).
Nous nous détournons de l\'itinéraire officiel pour passer par la source miraculeuse où nous déjeunons avant de reprendre la route vers la première chapelle.
La cascade vue de loin, photographiée et nous nous en rapprochons. Difficile à croire, mais même avec cette température, personne ne se baigne dans le lit de la rivière pourtant très accessible.
Nous nous dirigeons ensuite vers la colline sur laquelle est bâtie Notre Dame des Grâces
Nous redescendons face à la falaise et à la ville. Rien que cette vue mérite de faire cette randonnée.
]]></desc>
  </metadata>
  <wpt lat="43.5275" lon="6.14835">
    <ele>237.9</ele>
    <name><![CDATA[Parking]]></name>
  </wpt>
  <trk>
    <name><![CDATA[Cotignac]]></name>
    <trkseg>
      <trkpt lat="43.52747" lon="6.14848">
        <ele>262.5771484375</ele>
        <time>2013-06-15T08:01:38Z</time>
      </trkpt>
      <trkpt lat="43.52751" lon="6.14849">
        <ele>261.13525390625</ele>
        <time>2013-06-15T08:01:42Z</time>
      </trkpt>
      <trkpt lat="43.52755" lon="6.14847">
        <ele>262.09655761719</ele>
        <time>2013-06-15T08:01:46Z</time>
      </trkpt>
      <trkpt lat="43.52768" lon="6.1485">
        <ele>261.61596679688</ele>
        <time>2013-06-15T08:02:08Z</time>
      </trkpt>
      <trkpt lat="43.52763" lon="6.14853">
        <ele>260.65454101562</ele>
        <time>2013-06-15T08:02:30Z</time>
      </trkpt>
      <trkpt lat="43.52776" lon="6.14857">
        <ele>259.21264648438</ele>
        <time>2013-06-15T08:02:40Z</time>
      </trkpt>
      <trkpt lat="43.52789" lon="6.14868">
        <ele>259.21264648438</ele>
        <time>2013-06-15T08:02:55Z</time>
      </trkpt>
      <trkpt lat="43.52795" lon="6.14873">
        <ele>259.21264648438</ele>
        <time>2013-06-15T08:03:21Z</time>
      </trkpt>
      <trkpt lat="43.52806" lon="6.14881">
        <ele>258.25134277344</ele>
        <time>2013-06-15T08:03:39Z</time>
      </trkpt>
      <trkpt lat="43.52811" lon="6.14883">
        <ele>257.2900390625</ele>
        <time>2013-06-15T08:03:44Z</time>
      </trkpt>
      <trkpt lat="43.52814" lon="6.14887">
        <ele>258.25134277344</ele>
        <time>2013-06-15T08:03:48Z</time>
      </trkpt>
      <trkpt lat="43.52819" lon="6.14896">
        <ele>258.25134277344</ele>
        <time>2013-06-15T08:04:00Z</time>
      </trkpt>
      <trkpt lat="43.52836" lon="6.14905">
        <ele>259.693359375</ele>
        <time>2013-06-15T08:04:23Z</time>
      </trkpt>
      <trkpt lat="43.52864" lon="6.14913">
        <ele>261.13525390625</ele>
        <time>2013-06-15T08:04:50Z</time>
      </trkpt>
      <trkpt lat="43.52867" lon="6.14912">
        <ele>261.13525390625</ele>
        <time>2013-06-15T08:04:53Z</time>
      </trkpt>
      <trkpt lat="43.529" lon="6.14918">
        <ele>262.09655761719</ele>
        <time>2013-06-15T08:05:10Z</time>
      </trkpt>
      <trkpt lat="43.52902" lon="6.14913">
        <ele>263.05786132812</ele>
        <time>2013-06-15T08:05:18Z</time>
      </trkpt>
      <trkpt lat="43.52907" lon="6.14903">
        <ele>263.53857421875</ele>
        <time>2013-06-15T08:05:25Z</time>
      </trkpt>
      <trkpt lat="43.52913" lon="6.14892">
        <ele>264.01928710938</ele>
        <time>2013-06-15T08:05:31Z</time>
      </trkpt>
      <trkpt lat="43.52916" lon="6.14878">
        <ele>264.98059082031</ele>
        <time>2013-06-15T08:05:42Z</time>
      </trkpt>
      <trkpt lat="43.52913" lon="6.14861">
        <ele>268.34509277344</ele>
        <time>2013-06-15T08:05:58Z</time>
      </trkpt>
      <trkpt lat="43.52915" lon="6.1484">
        <ele>268.34509277344</ele>
        <time>2013-06-15T08:06:17Z</time>
      </trkpt>
      <trkpt lat="43.52921" lon="6.1484">
        <ele>269.787109375</ele>
        <time>2013-06-15T08:06:39Z</time>
      </trkpt>
      <trkpt lat="43.52922" lon="6.14849">
        <ele>269.787109375</ele>
        <time>2013-06-15T08:07:09Z</time>
      </trkpt>
      <trkpt lat="43.52921" lon="6.14855">
        <ele>269.30651855469</ele>
        <time>2013-06-15T08:07:25Z</time>
      </trkpt>
      <trkpt lat="43.5291" lon="6.14844">
        <ele>270.26770019531</ele>
        <time>2013-06-15T08:07:54Z</time>
      </trkpt>
      <trkpt lat="43.529" lon="6.14848">
        <ele>270.26770019531</ele>
        <time>2013-06-15T08:08:23Z</time>
      </trkpt>
      <trkpt lat="43.52907" lon="6.1484">
        <ele>272.67114257812</ele>
        <time>2013-06-15T08:08:55Z</time>
      </trkpt>
      <trkpt lat="43.52912" lon="6.14837">
        <ele>273.63244628906</ele>
        <time>2013-06-15T08:09:08Z</time>
      </trkpt>
      <trkpt lat="43.52918" lon="6.14841">
        <ele>275.55505371094</ele>
        <time>2013-06-15T08:09:36Z</time>
      </trkpt>
      <trkpt lat="43.52934" lon="6.14835">
        <ele>276.9970703125</ele>
        <time>2013-06-15T08:09:48Z</time>
      </trkpt>
      <trkpt lat="43.52941" lon="6.14835">
        <ele>279.40026855469</ele>
        <time>2013-06-15T08:10:03Z</time>
      </trkpt>
      <trkpt lat="43.52942" lon="6.14838">
        <ele>278.43896484375</ele>
        <time>2013-06-15T08:10:29Z</time>
      </trkpt>
      <trkpt lat="43.52936" lon="6.14838">
        <ele>277.95825195312</ele>
        <time>2013-06-15T08:10:43Z</time>
      </trkpt>
      <trkpt lat="43.52931" lon="6.14835">
        <ele>281.32299804688</ele>
        <time>2013-06-15T08:18:58Z</time>
      </trkpt>
      <trkpt lat="43.52932" lon="6.14837">
        <ele>282.28430175781</ele>
        <time>2013-06-15T08:19:00Z</time>
      </trkpt>
      <trkpt lat="43.52938" lon="6.14833">
        <ele>281.32299804688</ele>
        <time>2013-06-15T08:19:05Z</time>
      </trkpt>
      <trkpt lat="43.52937" lon="6.14833">
        <ele>278.91967773438</ele>
        <time>2013-06-15T08:19:19Z</time>
      </trkpt>
      <trkpt lat="43.52944" lon="6.14835">
        <ele>277.95825195312</ele>
        <time>2013-06-15T08:19:32Z</time>
      </trkpt>
      <trkpt lat="43.52949" lon="6.1484">
        <ele>278.43896484375</ele>
        <time>2013-06-15T08:19:48Z</time>
      </trkpt>
      <trkpt lat="43.52958" lon="6.14856">
        <ele>280.36169433594</ele>
        <time>2013-06-15T08:20:03Z</time>
      </trkpt>
      <trkpt lat="43.5297" lon="6.14863">
        <ele>281.32299804688</ele>
        <time>2013-06-15T08:26:32Z</time>
      </trkpt>
      <trkpt lat="43.5297" lon="6.14868">
        <ele>281.80358886719</ele>
        <time>2013-06-15T08:26:37Z</time>
      </trkpt>
      <trkpt lat="43.52977" lon="6.14881">
        <ele>284.20690917969</ele>
        <time>2013-06-15T08:26:52Z</time>
      </trkpt>
      <trkpt lat="43.52984" lon="6.14892">
        <ele>287.57141113281</ele>
        <time>2013-06-15T08:27:06Z</time>
      </trkpt>
      <trkpt lat="43.52989" lon="6.14897">
        <ele>288.05224609375</ele>
        <time>2013-06-15T08:27:21Z</time>
      </trkpt>
      <trkpt lat="43.52996" lon="6.14885">
        <ele>289.97485351562</ele>
        <time>2013-06-15T08:27:48Z</time>
      </trkpt>
      <trkpt lat="43.52997" lon="6.14897">
        <ele>289.01354980469</ele>
        <time>2013-06-15T08:28:04Z</time>
      </trkpt>
      <trkpt lat="43.52992" lon="6.14896">
        <ele>289.97485351562</ele>
        <time>2013-06-15T08:28:22Z</time>
      </trkpt>
      <trkpt lat="43.52983" lon="6.14889">
        <ele>286.61022949219</ele>
        <time>2013-06-15T08:28:38Z</time>
      </trkpt>
      <trkpt lat="43.52975" lon="6.1488">
        <ele>283.72619628906</ele>
        <time>2013-06-15T08:28:55Z</time>
      </trkpt>
      <trkpt lat="43.5297" lon="6.14867">
        <ele>281.80358886719</ele>
        <time>2013-06-15T08:29:06Z</time>
      </trkpt>
      <trkpt lat="43.52968" lon="6.14859">
        <ele>280.84240722656</ele>
        <time>2013-06-15T08:29:12Z</time>
      </trkpt>
      <trkpt lat="43.52967" lon="6.14856">
        <ele>280.84240722656</ele>
        <time>2013-06-15T08:29:15Z</time>
      </trkpt>
      <trkpt lat="43.52971" lon="6.14853">
        <ele>282.76501464844</ele>
        <time>2013-06-15T08:29:28Z</time>
      </trkpt>
      <trkpt lat="43.52971" lon="6.14856">
        <ele>283.24560546875</ele>
        <time>2013-06-15T08:29:35Z</time>
      </trkpt>
      <trkpt lat="43.5297" lon="6.14853">
        <ele>283.24560546875</ele>
        <time>2013-06-15T08:29:37Z</time>
      </trkpt>
      <trkpt lat="43.52964" lon="6.14852">
        <ele>282.28430175781</ele>
        <time>2013-06-15T08:29:47Z</time>
      </trkpt>
      <trkpt lat="43.52952" lon="6.1483">
        <ele>283.24560546875</ele>
        <time>2013-06-15T08:30:04Z</time>
      </trkpt>
      <trkpt lat="43.5295" lon="6.14823">
        <ele>282.76501464844</ele>
        <time>2013-06-15T08:30:16Z</time>
      </trkpt>
      <trkpt lat="43.52946" lon="6.14835">
        <ele>282.76501464844</ele>
        <time>2013-06-15T08:30:19Z</time>
      </trkpt>
      <trkpt lat="43.52947" lon="6.14843">
        <ele>282.76501464844</ele>
        <time>2013-06-15T08:30:28Z</time>
      </trkpt>
      <trkpt lat="43.5296" lon="6.14848">
        <ele>282.76501464844</ele>
        <time>2013-06-15T08:30:40Z</time>
      </trkpt>
      <trkpt lat="43.52963" lon="6.1485">
        <ele>282.28430175781</ele>
        <time>2013-06-15T08:30:43Z</time>
      </trkpt>
      <trkpt lat="43.52967" lon="6.1486">
        <ele>281.32299804688</ele>
        <time>2013-06-15T08:30:52Z</time>
      </trkpt>
      <trkpt lat="43.52964" lon="6.14859">
        <ele>278.91967773438</ele>
        <time>2013-06-15T08:31:04Z</time>
      </trkpt>
      <trkpt lat="43.5296" lon="6.14858">
        <ele>276.03564453125</ele>
        <time>2013-06-15T08:31:12Z</time>
      </trkpt>
      <trkpt lat="43.52964" lon="6.14857">
        <ele>278.43896484375</ele>
        <time>2013-06-15T08:31:43Z</time>
      </trkpt>
      <trkpt lat="43.52958" lon="6.14864">
        <ele>276.9970703125</ele>
        <time>2013-06-15T08:32:10Z</time>
      </trkpt>
      <trkpt lat="43.52948" lon="6.14848">
        <ele>275.07446289062</ele>
        <time>2013-06-15T08:32:21Z</time>
      </trkpt>
      <trkpt lat="43.5294" lon="6.14838">
        <ele>273.63244628906</ele>
        <time>2013-06-15T08:32:33Z</time>
      </trkpt>
      <trkpt lat="43.5294" lon="6.14836">
        <ele>274.11303710938</ele>
        <time>2013-06-15T08:32:35Z</time>
      </trkpt>
      <trkpt lat="43.52937" lon="6.14812">
        <ele>276.51635742188</ele>
        <time>2013-06-15T08:32:50Z</time>
      </trkpt>
      <trkpt lat="43.52935" lon="6.14821">
        <ele>277.47766113281</ele>
        <time>2013-06-15T08:33:06Z</time>
      </trkpt>
      <trkpt lat="43.5293" lon="6.14825">
        <ele>277.95825195312</ele>
        <time>2013-06-15T08:33:12Z</time>
      </trkpt>
      <trkpt lat="43.52923" lon="6.1483">
        <ele>278.91967773438</ele>
        <time>2013-06-15T08:33:19Z</time>
      </trkpt>
      <trkpt lat="43.52918" lon="6.14837">
        <ele>279.40026855469</ele>
        <time>2013-06-15T08:33:23Z</time>
      </trkpt>
      <trkpt lat="43.52907" lon="6.14831">
        <ele>278.91967773438</ele>
        <time>2013-06-15T08:33:35Z</time>
      </trkpt>
      <trkpt lat="43.52905" lon="6.14828">
        <ele>278.91967773438</ele>
        <time>2013-06-15T08:33:38Z</time>
      </trkpt>
      <trkpt lat="43.52899" lon="6.14809">
        <ele>279.40026855469</ele>
        <time>2013-06-15T08:33:51Z</time>
      </trkpt>
      <trkpt lat="43.52888" lon="6.14801">
        <ele>281.32299804688</ele>
        <time>2013-06-15T08:34:09Z</time>
      </trkpt>
      <trkpt lat="43.52882" lon="6.14786">
        <ele>283.72619628906</ele>
        <time>2013-06-15T08:34:29Z</time>
      </trkpt>
      <trkpt lat="43.52889" lon="6.14789">
        <ele>285.16821289062</ele>
        <time>2013-06-15T08:34:37Z</time>
      </trkpt>
      <trkpt lat="43.52901" lon="6.148">
        <ele>288.05224609375</ele>
        <time>2013-06-15T08:34:54Z</time>
      </trkpt>
      <trkpt lat="43.52907" lon="6.1478">
        <ele>290.93615722656</ele>
        <time>2013-06-15T08:35:09Z</time>
      </trkpt>
      <trkpt lat="43.52899" lon="6.14762">
        <ele>293.33935546875</ele>
        <time>2013-06-15T08:35:25Z</time>
      </trkpt>
      <trkpt lat="43.529" lon="6.14759">
        <ele>295.26196289062</ele>
        <time>2013-06-15T08:35:36Z</time>
      </trkpt>
      <trkpt lat="43.52898" lon="6.14752">
        <ele>298.14611816406</ele>
        <time>2013-06-15T08:35:57Z</time>
      </trkpt>
      <trkpt lat="43.52896" lon="6.14731">
        <ele>301.51062011719</ele>
        <time>2013-06-15T08:36:13Z</time>
      </trkpt>
      <trkpt lat="43.52906" lon="6.14711">
        <ele>303.91394042969</ele>
        <time>2013-06-15T08:36:35Z</time>
      </trkpt>
      <trkpt lat="43.52904" lon="6.14704">
        <ele>304.87524414062</ele>
        <time>2013-06-15T08:36:41Z</time>
      </trkpt>
      <trkpt lat="43.52906" lon="6.14691">
        <ele>307.27856445312</ele>
        <time>2013-06-15T08:36:59Z</time>
      </trkpt>
      <trkpt lat="43.52909" lon="6.1468">
        <ele>309.201171875</ele>
        <time>2013-06-15T08:37:14Z</time>
      </trkpt>
      <trkpt lat="43.52913" lon="6.14691">
        <ele>311.12377929688</ele>
        <time>2013-06-15T08:37:33Z</time>
      </trkpt>
      <trkpt lat="43.52913" lon="6.14705">
        <ele>314.48840332031</ele>
        <time>2013-06-15T08:38:04Z</time>
      </trkpt>
      <trkpt lat="43.52928" lon="6.14699">
        <ele>317.37243652344</ele>
        <time>2013-06-15T08:38:22Z</time>
      </trkpt>
      <trkpt lat="43.52926" lon="6.14685">
        <ele>318.81433105469</ele>
        <time>2013-06-15T08:38:43Z</time>
      </trkpt>
      <trkpt lat="43.52927" lon="6.14667">
        <ele>321.2177734375</ele>
        <time>2013-06-15T08:39:03Z</time>
      </trkpt>
      <trkpt lat="43.52933" lon="6.14659">
        <ele>324.1015625</ele>
        <time>2013-06-15T08:39:22Z</time>
      </trkpt>
      <trkpt lat="43.52939" lon="6.14654">
        <ele>324.58227539062</ele>
        <time>2013-06-15T08:39:38Z</time>
      </trkpt>
      <trkpt lat="43.52945" lon="6.14642">
        <ele>325.54357910156</ele>
        <time>2013-06-15T08:39:53Z</time>
      </trkpt>
      <trkpt lat="43.5296" lon="6.14626">
        <ele>326.02416992188</ele>
        <time>2013-06-15T08:40:15Z</time>
      </trkpt>
      <trkpt lat="43.52972" lon="6.14617">
        <ele>326.98559570312</ele>
        <time>2013-06-15T08:40:34Z</time>
      </trkpt>
      <trkpt lat="43.52978" lon="6.14607">
        <ele>326.98559570312</ele>
        <time>2013-06-15T08:40:49Z</time>
      </trkpt>
      <trkpt lat="43.52991" lon="6.1459">
        <ele>326.98559570312</ele>
        <time>2013-06-15T08:41:09Z</time>
      </trkpt>
      <trkpt lat="43.52996" lon="6.14587">
        <ele>327.46618652344</ele>
        <time>2013-06-15T08:41:13Z</time>
      </trkpt>
      <trkpt lat="43.53003" lon="6.14582">
        <ele>326.98559570312</ele>
        <time>2013-06-15T08:41:25Z</time>
      </trkpt>
      <trkpt lat="43.53017" lon="6.14582">
        <ele>327.46618652344</ele>
        <time>2013-06-15T08:41:39Z</time>
      </trkpt>
      <trkpt lat="43.53027" lon="6.14578">
        <ele>327.46618652344</ele>
        <time>2013-06-15T08:41:54Z</time>
      </trkpt>
      <trkpt lat="43.53033" lon="6.14576">
        <ele>326.98559570312</ele>
        <time>2013-06-15T08:42:09Z</time>
      </trkpt>
      <trkpt lat="43.53047" lon="6.14566">
        <ele>327.46618652344</ele>
        <time>2013-06-15T08:42:44Z</time>
      </trkpt>
      <trkpt lat="43.5305" lon="6.14563">
        <ele>326.98559570312</ele>
        <time>2013-06-15T08:42:55Z</time>
      </trkpt>
      <trkpt lat="43.53055" lon="6.14561">
        <ele>326.98559570312</ele>
        <time>2013-06-15T08:43:03Z</time>
      </trkpt>
      <trkpt lat="43.53056" lon="6.1456">
        <ele>327.46618652344</ele>
        <time>2013-06-15T08:43:05Z</time>
      </trkpt>
      <trkpt lat="43.5306" lon="6.14559">
        <ele>327.46618652344</ele>
        <time>2013-06-15T08:43:09Z</time>
      </trkpt>
      <trkpt lat="43.53075" lon="6.14555">
        <ele>326.98559570312</ele>
        <time>2013-06-15T08:43:24Z</time>
      </trkpt>
      <trkpt lat="43.53084" lon="6.14552">
        <ele>327.46618652344</ele>
        <time>2013-06-15T08:43:38Z</time>
      </trkpt>
      <trkpt lat="43.53098" lon="6.14547">
        <ele>326.98559570312</ele>
        <time>2013-06-15T08:43:53Z</time>
      </trkpt>
      <trkpt lat="43.53111" lon="6.14542">
        <ele>326.98559570312</ele>
        <time>2013-06-15T08:44:08Z</time>
      </trkpt>
      <trkpt lat="43.53123" lon="6.14537">
        <ele>327.46618652344</ele>
        <time>2013-06-15T08:44:20Z</time>
      </trkpt>
      <trkpt lat="43.53135" lon="6.14533">
        <ele>327.46618652344</ele>
        <time>2013-06-15T08:44:33Z</time>
      </trkpt>
      <trkpt lat="43.5315" lon="6.1453">
        <ele>327.46618652344</ele>
        <time>2013-06-15T08:44:48Z</time>
      </trkpt>
      <trkpt lat="43.53161" lon="6.14525">
        <ele>327.46618652344</ele>
        <time>2013-06-15T08:45:00Z</time>
      </trkpt>
      <trkpt lat="43.53164" lon="6.14522">
        <ele>327.46618652344</ele>
        <time>2013-06-15T08:45:04Z</time>
      </trkpt>
      <trkpt lat="43.53166" lon="6.1452">
        <ele>327.46618652344</ele>
        <time>2013-06-15T08:45:07Z</time>
      </trkpt>
      <trkpt lat="43.53174" lon="6.14514">
        <ele>328.42761230469</ele>
        <time>2013-06-15T08:45:16Z</time>
      </trkpt>
      <trkpt lat="43.53193" lon="6.14508">
        <ele>326.98559570312</ele>
        <time>2013-06-15T08:45:35Z</time>
      </trkpt>
      <trkpt lat="43.53196" lon="6.1451">
        <ele>326.98559570312</ele>
        <time>2013-06-15T08:45:38Z</time>
      </trkpt>
      <trkpt lat="43.53218" lon="6.14511">
        <ele>326.98559570312</ele>
        <time>2013-06-15T08:45:53Z</time>
      </trkpt>
      <trkpt lat="43.53227" lon="6.14515">
        <ele>327.46618652344</ele>
        <time>2013-06-15T08:46:08Z</time>
      </trkpt>
      <trkpt lat="43.53237" lon="6.14525">
        <ele>326.98559570312</ele>
        <time>2013-06-15T08:46:19Z</time>
      </trkpt>
      <trkpt lat="43.53234" lon="6.14547">
        <ele>328.42761230469</ele>
        <time>2013-06-15T08:46:34Z</time>
      </trkpt>
      <trkpt lat="43.53222" lon="6.14567">
        <ele>329.86950683594</ele>
        <time>2013-06-15T08:46:54Z</time>
      </trkpt>
      <trkpt lat="43.53216" lon="6.14574">
        <ele>329.86950683594</ele>
        <time>2013-06-15T08:47:05Z</time>
      </trkpt>
      <trkpt lat="43.5321" lon="6.14587">
        <ele>330.83093261719</ele>
        <time>2013-06-15T08:47:18Z</time>
      </trkpt>
      <trkpt lat="43.53207" lon="6.14596">
        <ele>331.79211425781</ele>
        <time>2013-06-15T08:49:35Z</time>
      </trkpt>
      <trkpt lat="43.5321" lon="6.14592">
        <ele>331.79211425781</ele>
        <time>2013-06-15T08:49:39Z</time>
      </trkpt>
      <trkpt lat="43.53215" lon="6.14592">
        <ele>331.3115234375</ele>
        <time>2013-06-15T08:49:46Z</time>
      </trkpt>
      <trkpt lat="43.53219" lon="6.14593">
        <ele>331.79211425781</ele>
        <time>2013-06-15T08:49:49Z</time>
      </trkpt>
      <trkpt lat="43.53223" lon="6.14596">
        <ele>332.27282714844</ele>
        <time>2013-06-15T08:49:54Z</time>
      </trkpt>
      <trkpt lat="43.53223" lon="6.14608">
        <ele>333.71472167969</ele>
        <time>2013-06-15T08:50:04Z</time>
      </trkpt>
      <trkpt lat="43.53215" lon="6.14613">
        <ele>333.23413085938</ele>
        <time>2013-06-15T08:50:17Z</time>
      </trkpt>
      <trkpt lat="43.53227" lon="6.14616">
        <ele>335.15673828125</ele>
        <time>2013-06-15T08:50:31Z</time>
      </trkpt>
      <trkpt lat="43.53241" lon="6.14623">
        <ele>336.59887695312</ele>
        <time>2013-06-15T08:50:46Z</time>
      </trkpt>
      <trkpt lat="43.53254" lon="6.14629">
        <ele>339.00207519531</ele>
        <time>2013-06-15T08:51:01Z</time>
      </trkpt>
      <trkpt lat="43.53271" lon="6.14637">
        <ele>341.88598632812</ele>
        <time>2013-06-15T08:51:20Z</time>
      </trkpt>
      <trkpt lat="43.53277" lon="6.14645">
        <ele>345.25061035156</ele>
        <time>2013-06-15T08:51:39Z</time>
      </trkpt>
      <trkpt lat="43.53286" lon="6.14658">
        <ele>348.13464355469</ele>
        <time>2013-06-15T08:51:56Z</time>
      </trkpt>
      <trkpt lat="43.53294" lon="6.14672">
        <ele>350.53784179688</ele>
        <time>2013-06-15T08:52:12Z</time>
      </trkpt>
      <trkpt lat="43.53306" lon="6.1469">
        <ele>352.94116210938</ele>
        <time>2013-06-15T08:52:33Z</time>
      </trkpt>
      <trkpt lat="43.53307" lon="6.14692">
        <ele>352.94116210938</ele>
        <time>2013-06-15T08:52:34Z</time>
      </trkpt>
      <trkpt lat="43.53322" lon="6.14708">
        <ele>354.86376953125</ele>
        <time>2013-06-15T08:52:53Z</time>
      </trkpt>
      <trkpt lat="43.53334" lon="6.14713">
        <ele>357.26708984375</ele>
        <time>2013-06-15T08:53:12Z</time>
      </trkpt>
      <trkpt lat="43.53342" lon="6.14723">
        <ele>359.18969726562</ele>
        <time>2013-06-15T08:53:28Z</time>
      </trkpt>
      <trkpt lat="43.5335" lon="6.1474">
        <ele>360.63171386719</ele>
        <time>2013-06-15T08:53:45Z</time>
      </trkpt>
      <trkpt lat="43.53348" lon="6.14756">
        <ele>362.07373046875</ele>
        <time>2013-06-15T08:54:02Z</time>
      </trkpt>
      <trkpt lat="43.53363" lon="6.14767">
        <ele>363.51574707031</ele>
        <time>2013-06-15T08:54:21Z</time>
      </trkpt>
      <trkpt lat="43.53377" lon="6.14764">
        <ele>364.95764160156</ele>
        <time>2013-06-15T08:54:38Z</time>
      </trkpt>
      <trkpt lat="43.53383" lon="6.14768">
        <ele>366.39953613281</ele>
        <time>2013-06-15T08:54:46Z</time>
      </trkpt>
      <trkpt lat="43.5339" lon="6.14776">
        <ele>367.36096191406</ele>
        <time>2013-06-15T08:54:58Z</time>
      </trkpt>
      <trkpt lat="43.53399" lon="6.14782">
        <ele>368.322265625</ele>
        <time>2013-06-15T08:55:05Z</time>
      </trkpt>
      <trkpt lat="43.53403" lon="6.14788">
        <ele>368.80297851562</ele>
        <time>2013-06-15T08:55:11Z</time>
      </trkpt>
      <trkpt lat="43.53409" lon="6.14794">
        <ele>369.76428222656</ele>
        <time>2013-06-15T08:55:15Z</time>
      </trkpt>
      <trkpt lat="43.53411" lon="6.14797">
        <ele>369.76428222656</ele>
        <time>2013-06-15T08:55:19Z</time>
      </trkpt>
      <trkpt lat="43.53419" lon="6.14818">
        <ele>370.7255859375</ele>
        <time>2013-06-15T09:01:32Z</time>
      </trkpt>
      <trkpt lat="43.53431" lon="6.14835">
        <ele>371.20629882812</ele>
        <time>2013-06-15T09:01:42Z</time>
      </trkpt>
      <trkpt lat="43.53431" lon="6.14842">
        <ele>370.7255859375</ele>
        <time>2013-06-15T09:06:41Z</time>
      </trkpt>
      <trkpt lat="43.53444" lon="6.14836">
        <ele>371.68688964844</ele>
        <time>2013-06-15T09:07:11Z</time>
      </trkpt>
      <trkpt lat="43.53455" lon="6.1482">
        <ele>371.68688964844</ele>
        <time>2013-06-15T09:07:29Z</time>
      </trkpt>
      <trkpt lat="43.53467" lon="6.1481">
        <ele>372.64819335938</ele>
        <time>2013-06-15T09:07:45Z</time>
      </trkpt>
      <trkpt lat="43.53476" lon="6.14797">
        <ele>373.12890625</ele>
        <time>2013-06-15T09:08:00Z</time>
      </trkpt>
      <trkpt lat="43.53492" lon="6.14788">
        <ele>374.57080078125</ele>
        <time>2013-06-15T09:08:19Z</time>
      </trkpt>
      <trkpt lat="43.53496" lon="6.1479">
        <ele>375.05151367188</ele>
        <time>2013-06-15T09:08:25Z</time>
      </trkpt>
      <trkpt lat="43.53506" lon="6.14799">
        <ele>374.57080078125</ele>
        <time>2013-06-15T09:08:38Z</time>
      </trkpt>
      <trkpt lat="43.53515" lon="6.14795">
        <ele>372.64819335938</ele>
        <time>2013-06-15T09:08:52Z</time>
      </trkpt>
      <trkpt lat="43.5353" lon="6.14794">
        <ele>369.76428222656</ele>
        <time>2013-06-15T09:09:08Z</time>
      </trkpt>
      <trkpt lat="43.53547" lon="6.14782">
        <ele>367.84155273438</ele>
        <time>2013-06-15T09:09:27Z</time>
      </trkpt>
      <trkpt lat="43.5357" lon="6.14773">
        <ele>364.95764160156</ele>
        <time>2013-06-15T09:09:47Z</time>
      </trkpt>
      <trkpt lat="43.53582" lon="6.14766">
        <ele>363.99633789062</ele>
        <time>2013-06-15T09:09:58Z</time>
      </trkpt>
      <trkpt lat="43.53586" lon="6.14761">
        <ele>362.07373046875</ele>
        <time>2013-06-15T09:10:06Z</time>
      </trkpt>
      <trkpt lat="43.53593" lon="6.14752">
        <ele>359.18969726562</ele>
        <time>2013-06-15T09:10:18Z</time>
      </trkpt>
      <trkpt lat="43.53595" lon="6.14749">
        <ele>358.708984375</ele>
        <time>2013-06-15T09:10:20Z</time>
      </trkpt>
      <trkpt lat="43.53607" lon="6.14736">
        <ele>356.30578613281</ele>
        <time>2013-06-15T09:10:36Z</time>
      </trkpt>
      <trkpt lat="43.53615" lon="6.1473">
        <ele>354.86376953125</ele>
        <time>2013-06-15T09:10:45Z</time>
      </trkpt>
      <trkpt lat="43.53625" lon="6.14714">
        <ele>352.94116210938</ele>
        <time>2013-06-15T09:11:00Z</time>
      </trkpt>
      <trkpt lat="43.53639" lon="6.14698">
        <ele>349.57653808594</ele>
        <time>2013-06-15T09:11:18Z</time>
      </trkpt>
      <trkpt lat="43.53644" lon="6.14695">
        <ele>348.615234375</ele>
        <time>2013-06-15T09:11:26Z</time>
      </trkpt>
      <trkpt lat="43.53655" lon="6.14693">
        <ele>346.69262695312</ele>
        <time>2013-06-15T09:11:38Z</time>
      </trkpt>
      <trkpt lat="43.53665" lon="6.14696">
        <ele>345.25061035156</ele>
        <time>2013-06-15T09:11:50Z</time>
      </trkpt>
      <trkpt lat="43.53686" lon="6.14699">
        <ele>343.32788085938</ele>
        <time>2013-06-15T09:12:06Z</time>
      </trkpt>
      <trkpt lat="43.53693" lon="6.14705">
        <ele>342.84729003906</ele>
        <time>2013-06-15T09:12:15Z</time>
      </trkpt>
      <trkpt lat="43.53703" lon="6.14704">
        <ele>340.44409179688</ele>
        <time>2013-06-15T09:12:29Z</time>
      </trkpt>
      <trkpt lat="43.53717" lon="6.14705">
        <ele>338.521484375</ele>
        <time>2013-06-15T09:12:45Z</time>
      </trkpt>
      <trkpt lat="43.53719" lon="6.14713">
        <ele>338.521484375</ele>
        <time>2013-06-15T09:13:05Z</time>
      </trkpt>
      <trkpt lat="43.53719" lon="6.14714">
        <ele>338.521484375</ele>
        <time>2013-06-15T09:13:06Z</time>
      </trkpt>
      <trkpt lat="43.53729" lon="6.14732">
        <ele>338.04077148438</ele>
        <time>2013-06-15T09:13:21Z</time>
      </trkpt>
      <trkpt lat="43.53743" lon="6.14742">
        <ele>337.07946777344</ele>
        <time>2013-06-15T09:13:36Z</time>
      </trkpt>
      <trkpt lat="43.53758" lon="6.14751">
        <ele>337.07946777344</ele>
        <time>2013-06-15T09:13:50Z</time>
      </trkpt>
      <trkpt lat="43.53774" lon="6.14753">
        <ele>336.59887695312</ele>
        <time>2013-06-15T09:14:05Z</time>
      </trkpt>
      <trkpt lat="43.53789" lon="6.14751">
        <ele>336.59887695312</ele>
        <time>2013-06-15T09:14:20Z</time>
      </trkpt>
      <trkpt lat="43.53793" lon="6.1475">
        <ele>336.59887695312</ele>
        <time>2013-06-15T09:14:23Z</time>
      </trkpt>
      <trkpt lat="43.53794" lon="6.14748">
        <ele>336.59887695312</ele>
        <time>2013-06-15T09:14:25Z</time>
      </trkpt>
      <trkpt lat="43.53799" lon="6.14735">
        <ele>336.59887695312</ele>
        <time>2013-06-15T09:14:35Z</time>
      </trkpt>
      <trkpt lat="43.53812" lon="6.14727">
        <ele>336.59887695312</ele>
        <time>2013-06-15T09:14:49Z</time>
      </trkpt>
      <trkpt lat="43.53826" lon="6.14722">
        <ele>336.59887695312</ele>
        <time>2013-06-15T09:15:03Z</time>
      </trkpt>
      <trkpt lat="43.53842" lon="6.14716">
        <ele>337.07946777344</ele>
        <time>2013-06-15T09:15:18Z</time>
      </trkpt>
      <trkpt lat="43.53857" lon="6.14711">
        <ele>337.56005859375</ele>
        <time>2013-06-15T09:15:32Z</time>
      </trkpt>
      <trkpt lat="43.53872" lon="6.14712">
        <ele>337.56005859375</ele>
        <time>2013-06-15T09:15:46Z</time>
      </trkpt>
      <trkpt lat="43.5388" lon="6.14715">
        <ele>338.04077148438</ele>
        <time>2013-06-15T09:15:55Z</time>
      </trkpt>
      <trkpt lat="43.53893" lon="6.1472">
        <ele>338.04077148438</ele>
        <time>2013-06-15T09:16:08Z</time>
      </trkpt>
      <trkpt lat="43.53896" lon="6.14721">
        <ele>338.04077148438</ele>
        <time>2013-06-15T09:16:10Z</time>
      </trkpt>
      <trkpt lat="43.53905" lon="6.14727">
        <ele>338.521484375</ele>
        <time>2013-06-15T09:16:18Z</time>
      </trkpt>
      <trkpt lat="43.53915" lon="6.14734">
        <ele>338.521484375</ele>
        <time>2013-06-15T09:16:28Z</time>
      </trkpt>
      <trkpt lat="43.53925" lon="6.14746">
        <ele>338.521484375</ele>
        <time>2013-06-15T09:16:40Z</time>
      </trkpt>
      <trkpt lat="43.5393" lon="6.1475">
        <ele>338.521484375</ele>
        <time>2013-06-15T09:16:46Z</time>
      </trkpt>
      <trkpt lat="43.53936" lon="6.14756">
        <ele>338.521484375</ele>
        <time>2013-06-15T09:16:53Z</time>
      </trkpt>
      <trkpt lat="43.53951" lon="6.14768">
        <ele>337.07946777344</ele>
        <time>2013-06-15T09:17:05Z</time>
      </trkpt>
      <trkpt lat="43.53956" lon="6.14777">
        <ele>338.04077148438</ele>
        <time>2013-06-15T09:17:15Z</time>
      </trkpt>
      <trkpt lat="43.53967" lon="6.14789">
        <ele>337.56005859375</ele>
        <time>2013-06-15T09:17:28Z</time>
      </trkpt>
      <trkpt lat="43.53974" lon="6.14797">
        <ele>337.07946777344</ele>
        <time>2013-06-15T09:17:39Z</time>
      </trkpt>
      <trkpt lat="43.53977" lon="6.14799">
        <ele>336.59887695312</ele>
        <time>2013-06-15T09:17:46Z</time>
      </trkpt>
      <trkpt lat="43.53985" lon="6.14795">
        <ele>335.63732910156</ele>
        <time>2013-06-15T09:18:02Z</time>
      </trkpt>
      <trkpt lat="43.53993" lon="6.14796">
        <ele>335.15673828125</ele>
        <time>2013-06-15T09:18:16Z</time>
      </trkpt>
      <trkpt lat="43.54" lon="6.14771">
        <ele>334.19543457031</ele>
        <time>2013-06-15T09:18:29Z</time>
      </trkpt>
      <trkpt lat="43.54004" lon="6.14771">
        <ele>333.71472167969</ele>
        <time>2013-06-15T09:19:37Z</time>
      </trkpt>
      <trkpt lat="43.54015" lon="6.1478">
        <ele>334.67614746094</ele>
        <time>2013-06-15T09:19:55Z</time>
      </trkpt>
      <trkpt lat="43.54032" lon="6.14775">
        <ele>334.19543457031</ele>
        <time>2013-06-15T09:20:18Z</time>
      </trkpt>
      <trkpt lat="43.54035" lon="6.14775">
        <ele>334.67614746094</ele>
        <time>2013-06-15T09:20:21Z</time>
      </trkpt>
      <trkpt lat="43.54054" lon="6.14776">
        <ele>334.19543457031</ele>
        <time>2013-06-15T09:20:35Z</time>
      </trkpt>
      <trkpt lat="43.54073" lon="6.14785">
        <ele>335.15673828125</ele>
        <time>2013-06-15T09:20:54Z</time>
      </trkpt>
      <trkpt lat="43.54089" lon="6.14783">
        <ele>336.59887695312</ele>
        <time>2013-06-15T09:21:10Z</time>
      </trkpt>
      <trkpt lat="43.54102" lon="6.14783">
        <ele>335.63732910156</ele>
        <time>2013-06-15T09:21:25Z</time>
      </trkpt>
      <trkpt lat="43.54117" lon="6.14793">
        <ele>336.1181640625</ele>
        <time>2013-06-15T09:21:41Z</time>
      </trkpt>
      <trkpt lat="43.5413" lon="6.14794">
        <ele>335.63732910156</ele>
        <time>2013-06-15T09:21:51Z</time>
      </trkpt>
      <trkpt lat="43.54146" lon="6.14801">
        <ele>335.63732910156</ele>
        <time>2013-06-15T09:22:06Z</time>
      </trkpt>
      <trkpt lat="43.54151" lon="6.14803">
        <ele>335.63732910156</ele>
        <time>2013-06-15T09:22:10Z</time>
      </trkpt>
      <trkpt lat="43.54167" lon="6.14807">
        <ele>335.63732910156</ele>
        <time>2013-06-15T09:22:25Z</time>
      </trkpt>
      <trkpt lat="43.54178" lon="6.14811">
        <ele>335.63732910156</ele>
        <time>2013-06-15T09:22:35Z</time>
      </trkpt>
      <trkpt lat="43.54192" lon="6.14819">
        <ele>335.63732910156</ele>
        <time>2013-06-15T09:22:50Z</time>
      </trkpt>
      <trkpt lat="43.54206" lon="6.14827">
        <ele>336.1181640625</ele>
        <time>2013-06-15T09:23:05Z</time>
      </trkpt>
      <trkpt lat="43.54218" lon="6.14834">
        <ele>334.67614746094</ele>
        <time>2013-06-15T09:23:18Z</time>
      </trkpt>
      <trkpt lat="43.54231" lon="6.14838">
        <ele>336.1181640625</ele>
        <time>2013-06-15T09:23:31Z</time>
      </trkpt>
      <trkpt lat="43.54242" lon="6.14839">
        <ele>336.59887695312</ele>
        <time>2013-06-15T09:23:44Z</time>
      </trkpt>
      <trkpt lat="43.54253" lon="6.14836">
        <ele>336.59887695312</ele>
        <time>2013-06-15T09:23:56Z</time>
      </trkpt>
      <trkpt lat="43.5426" lon="6.14837">
        <ele>337.07946777344</ele>
        <time>2013-06-15T09:24:05Z</time>
      </trkpt>
      <trkpt lat="43.54272" lon="6.14826">
        <ele>338.04077148438</ele>
        <time>2013-06-15T09:24:20Z</time>
      </trkpt>
      <trkpt lat="43.54285" lon="6.14815">
        <ele>338.521484375</ele>
        <time>2013-06-15T09:24:35Z</time>
      </trkpt>
      <trkpt lat="43.54293" lon="6.14801">
        <ele>339.00207519531</ele>
        <time>2013-06-15T09:24:48Z</time>
      </trkpt>
      <trkpt lat="43.54301" lon="6.14794">
        <ele>339.48266601562</ele>
        <time>2013-06-15T09:24:58Z</time>
      </trkpt>
      <trkpt lat="43.5431" lon="6.14778">
        <ele>339.48266601562</ele>
        <time>2013-06-15T09:25:12Z</time>
      </trkpt>
      <trkpt lat="43.54318" lon="6.1476">
        <ele>340.44409179688</ele>
        <time>2013-06-15T09:25:27Z</time>
      </trkpt>
      <trkpt lat="43.54319" lon="6.14759">
        <ele>340.44409179688</ele>
        <time>2013-06-15T09:25:28Z</time>
      </trkpt>
      <trkpt lat="43.54322" lon="6.14753">
        <ele>340.92468261719</ele>
        <time>2013-06-15T09:25:32Z</time>
      </trkpt>
      <trkpt lat="43.54325" lon="6.14746">
        <ele>340.92468261719</ele>
        <time>2013-06-15T09:25:38Z</time>
      </trkpt>
      <trkpt lat="43.54333" lon="6.14732">
        <ele>340.92468261719</ele>
        <time>2013-06-15T09:25:51Z</time>
      </trkpt>
      <trkpt lat="43.54343" lon="6.14709">
        <ele>341.88598632812</ele>
        <time>2013-06-15T09:26:10Z</time>
      </trkpt>
      <trkpt lat="43.54354" lon="6.14689">
        <ele>342.36669921875</ele>
        <time>2013-06-15T09:26:27Z</time>
      </trkpt>
      <trkpt lat="43.54362" lon="6.14669">
        <ele>342.84729003906</ele>
        <time>2013-06-15T09:26:45Z</time>
      </trkpt>
      <trkpt lat="43.54373" lon="6.14652">
        <ele>342.84729003906</ele>
        <time>2013-06-15T09:27:00Z</time>
      </trkpt>
      <trkpt lat="43.54383" lon="6.14637">
        <ele>342.36669921875</ele>
        <time>2013-06-15T09:27:14Z</time>
      </trkpt>
      <trkpt lat="43.54392" lon="6.14613">
        <ele>342.36669921875</ele>
        <time>2013-06-15T09:27:30Z</time>
      </trkpt>
      <trkpt lat="43.544" lon="6.14594">
        <ele>342.36669921875</ele>
        <time>2013-06-15T09:27:46Z</time>
      </trkpt>
      <trkpt lat="43.54407" lon="6.14577">
        <ele>341.88598632812</ele>
        <time>2013-06-15T09:28:00Z</time>
      </trkpt>
      <trkpt lat="43.54411" lon="6.14556">
        <ele>341.88598632812</ele>
        <time>2013-06-15T09:28:15Z</time>
      </trkpt>
      <trkpt lat="43.54417" lon="6.14537">
        <ele>341.88598632812</ele>
        <time>2013-06-15T09:28:29Z</time>
      </trkpt>
      <trkpt lat="43.54423" lon="6.14517">
        <ele>341.4052734375</ele>
        <time>2013-06-15T09:28:44Z</time>
      </trkpt>
      <trkpt lat="43.5443" lon="6.14501">
        <ele>341.4052734375</ele>
        <time>2013-06-15T09:28:59Z</time>
      </trkpt>
      <trkpt lat="43.54437" lon="6.14481">
        <ele>341.88598632812</ele>
        <time>2013-06-15T09:29:13Z</time>
      </trkpt>
      <trkpt lat="43.54444" lon="6.1446">
        <ele>342.36669921875</ele>
        <time>2013-06-15T09:29:27Z</time>
      </trkpt>
      <trkpt lat="43.54452" lon="6.14443">
        <ele>342.36669921875</ele>
        <time>2013-06-15T09:29:41Z</time>
      </trkpt>
      <trkpt lat="43.54457" lon="6.14435">
        <ele>342.36669921875</ele>
        <time>2013-06-15T09:29:49Z</time>
      </trkpt>
      <trkpt lat="43.54467" lon="6.14421">
        <ele>341.88598632812</ele>
        <time>2013-06-15T09:30:02Z</time>
      </trkpt>
      <trkpt lat="43.54477" lon="6.14404">
        <ele>342.36669921875</ele>
        <time>2013-06-15T09:30:17Z</time>
      </trkpt>
      <trkpt lat="43.54485" lon="6.14391">
        <ele>342.36669921875</ele>
        <time>2013-06-15T09:30:29Z</time>
      </trkpt>
      <trkpt lat="43.54495" lon="6.14377">
        <ele>342.84729003906</ele>
        <time>2013-06-15T09:30:42Z</time>
      </trkpt>
      <trkpt lat="43.54495" lon="6.14376">
        <ele>342.36669921875</ele>
        <time>2013-06-15T09:30:43Z</time>
      </trkpt>
      <trkpt lat="43.54504" lon="6.14364">
        <ele>342.84729003906</ele>
        <time>2013-06-15T09:30:55Z</time>
      </trkpt>
      <trkpt lat="43.54514" lon="6.1435">
        <ele>342.84729003906</ele>
        <time>2013-06-15T09:31:07Z</time>
      </trkpt>
      <trkpt lat="43.54526" lon="6.14341">
        <ele>342.84729003906</ele>
        <time>2013-06-15T09:31:20Z</time>
      </trkpt>
      <trkpt lat="43.54537" lon="6.14333">
        <ele>342.84729003906</ele>
        <time>2013-06-15T09:31:32Z</time>
      </trkpt>
      <trkpt lat="43.54555" lon="6.14327">
        <ele>342.84729003906</ele>
        <time>2013-06-15T09:31:50Z</time>
      </trkpt>
      <trkpt lat="43.54575" lon="6.14324">
        <ele>342.84729003906</ele>
        <time>2013-06-15T09:32:06Z</time>
      </trkpt>
      <trkpt lat="43.5459" lon="6.14317">
        <ele>342.84729003906</ele>
        <time>2013-06-15T09:32:20Z</time>
      </trkpt>
      <trkpt lat="43.54604" lon="6.14316">
        <ele>342.36669921875</ele>
        <time>2013-06-15T09:32:34Z</time>
      </trkpt>
      <trkpt lat="43.54619" lon="6.14314">
        <ele>342.84729003906</ele>
        <time>2013-06-15T09:32:48Z</time>
      </trkpt>
      <trkpt lat="43.54623" lon="6.14314">
        <ele>342.36669921875</ele>
        <time>2013-06-15T09:32:52Z</time>
      </trkpt>
      <trkpt lat="43.54638" lon="6.14314">
        <ele>342.84729003906</ele>
        <time>2013-06-15T09:33:06Z</time>
      </trkpt>
      <trkpt lat="43.54648" lon="6.14309">
        <ele>342.84729003906</ele>
        <time>2013-06-15T09:33:16Z</time>
      </trkpt>
      <trkpt lat="43.54657" lon="6.14306">
        <ele>342.36669921875</ele>
        <time>2013-06-15T09:33:25Z</time>
      </trkpt>
      <trkpt lat="43.5467" lon="6.14299">
        <ele>343.32788085938</ele>
        <time>2013-06-15T09:33:39Z</time>
      </trkpt>
      <trkpt lat="43.54686" lon="6.14291">
        <ele>344.77001953125</ele>
        <time>2013-06-15T09:33:55Z</time>
      </trkpt>
      <trkpt lat="43.54697" lon="6.14282">
        <ele>346.21203613281</ele>
        <time>2013-06-15T09:34:09Z</time>
      </trkpt>
      <trkpt lat="43.54711" lon="6.14263">
        <ele>347.65393066406</ele>
        <time>2013-06-15T09:34:24Z</time>
      </trkpt>
      <trkpt lat="43.54724" lon="6.1425">
        <ele>348.615234375</ele>
        <time>2013-06-15T09:34:40Z</time>
      </trkpt>
      <trkpt lat="43.54739" lon="6.1424">
        <ele>349.09582519531</ele>
        <time>2013-06-15T09:34:55Z</time>
      </trkpt>
      <trkpt lat="43.54753" lon="6.14234">
        <ele>350.05725097656</ele>
        <time>2013-06-15T09:35:11Z</time>
      </trkpt>
      <trkpt lat="43.54769" lon="6.14226">
        <ele>350.53784179688</ele>
        <time>2013-06-15T09:35:28Z</time>
      </trkpt>
      <trkpt lat="43.5478" lon="6.1422">
        <ele>351.49914550781</ele>
        <time>2013-06-15T09:35:40Z</time>
      </trkpt>
      <trkpt lat="43.548" lon="6.14209">
        <ele>352.46057128906</ele>
        <time>2013-06-15T09:35:58Z</time>
      </trkpt>
      <trkpt lat="43.54812" lon="6.14197">
        <ele>353.90258789062</ele>
        <time>2013-06-15T09:36:13Z</time>
      </trkpt>
      <trkpt lat="43.54825" lon="6.14185">
        <ele>355.34448242188</ele>
        <time>2013-06-15T09:36:28Z</time>
      </trkpt>
      <trkpt lat="43.54834" lon="6.14176">
        <ele>356.78637695312</ele>
        <time>2013-06-15T09:36:41Z</time>
      </trkpt>
      <trkpt lat="43.54845" lon="6.14156">
        <ele>357.74780273438</ele>
        <time>2013-06-15T09:36:58Z</time>
      </trkpt>
      <trkpt lat="43.54853" lon="6.14137">
        <ele>359.18969726562</ele>
        <time>2013-06-15T09:37:16Z</time>
      </trkpt>
      <trkpt lat="43.54867" lon="6.14128">
        <ele>360.15112304688</ele>
        <time>2013-06-15T09:37:34Z</time>
      </trkpt>
      <trkpt lat="43.54882" lon="6.14124">
        <ele>359.67041015625</ele>
        <time>2013-06-15T09:37:51Z</time>
      </trkpt>
      <trkpt lat="43.5489" lon="6.14125">
        <ele>361.11242675781</ele>
        <time>2013-06-15T09:37:55Z</time>
      </trkpt>
      <trkpt lat="43.54903" lon="6.1412">
        <ele>360.63171386719</ele>
        <time>2013-06-15T09:38:09Z</time>
      </trkpt>
      <trkpt lat="43.54922" lon="6.1411">
        <ele>361.59313964844</ele>
        <time>2013-06-15T09:38:30Z</time>
      </trkpt>
      <trkpt lat="43.54937" lon="6.141">
        <ele>362.55432128906</ele>
        <time>2013-06-15T09:38:47Z</time>
      </trkpt>
      <trkpt lat="43.54951" lon="6.14093">
        <ele>363.03503417969</ele>
        <time>2013-06-15T09:39:03Z</time>
      </trkpt>
      <trkpt lat="43.54978" lon="6.14096">
        <ele>363.51574707031</ele>
        <time>2013-06-15T09:39:23Z</time>
      </trkpt>
      <trkpt lat="43.54991" lon="6.14106">
        <ele>364.47692871094</ele>
        <time>2013-06-15T09:39:40Z</time>
      </trkpt>
      <trkpt lat="43.54995" lon="6.14107">
        <ele>364.95764160156</ele>
        <time>2013-06-15T09:39:46Z</time>
      </trkpt>
      <trkpt lat="43.55008" lon="6.14112">
        <ele>365.43835449219</ele>
        <time>2013-06-15T09:40:00Z</time>
      </trkpt>
      <trkpt lat="43.55014" lon="6.14112">
        <ele>362.55432128906</ele>
        <time>2013-06-15T09:40:09Z</time>
      </trkpt>
      <trkpt lat="43.55032" lon="6.14107">
        <ele>360.63171386719</ele>
        <time>2013-06-15T09:40:25Z</time>
      </trkpt>
      <trkpt lat="43.55049" lon="6.141">
        <ele>358.708984375</ele>
        <time>2013-06-15T09:40:44Z</time>
      </trkpt>
      <trkpt lat="43.55053" lon="6.14092">
        <ele>357.74780273438</ele>
        <time>2013-06-15T09:40:59Z</time>
      </trkpt>
      <trkpt lat="43.55059" lon="6.14086">
        <ele>356.78637695312</ele>
        <time>2013-06-15T09:41:06Z</time>
      </trkpt>
      <trkpt lat="43.55061" lon="6.14066">
        <ele>355.34448242188</ele>
        <time>2013-06-15T09:41:25Z</time>
      </trkpt>
      <trkpt lat="43.55069" lon="6.14049">
        <ele>354.38317871094</ele>
        <time>2013-06-15T09:41:43Z</time>
      </trkpt>
      <trkpt lat="43.55082" lon="6.14029">
        <ele>352.46057128906</ele>
        <time>2013-06-15T09:42:03Z</time>
      </trkpt>
      <trkpt lat="43.55091" lon="6.1401">
        <ele>350.53784179688</ele>
        <time>2013-06-15T09:42:24Z</time>
      </trkpt>
      <trkpt lat="43.55105" lon="6.14003">
        <ele>349.57653808594</ele>
        <time>2013-06-15T09:42:40Z</time>
      </trkpt>
      <trkpt lat="43.55115" lon="6.14002">
        <ele>349.09582519531</ele>
        <time>2013-06-15T09:42:52Z</time>
      </trkpt>
      <trkpt lat="43.55125" lon="6.13989">
        <ele>349.57653808594</ele>
        <time>2013-06-15T09:43:07Z</time>
      </trkpt>
      <trkpt lat="43.5514" lon="6.13973">
        <ele>349.57653808594</ele>
        <time>2013-06-15T09:43:25Z</time>
      </trkpt>
      <trkpt lat="43.55142" lon="6.13972">
        <ele>349.57653808594</ele>
        <time>2013-06-15T09:43:27Z</time>
      </trkpt>
      <trkpt lat="43.55144" lon="6.1397">
        <ele>349.57653808594</ele>
        <time>2013-06-15T09:43:29Z</time>
      </trkpt>
      <trkpt lat="43.55145" lon="6.13968">
        <ele>349.57653808594</ele>
        <time>2013-06-15T09:43:31Z</time>
      </trkpt>
      <trkpt lat="43.55157" lon="6.13957">
        <ele>349.57653808594</ele>
        <time>2013-06-15T09:43:45Z</time>
      </trkpt>
      <trkpt lat="43.55169" lon="6.13949">
        <ele>350.05725097656</ele>
        <time>2013-06-15T09:43:58Z</time>
      </trkpt>
      <trkpt lat="43.55174" lon="6.13944">
        <ele>350.05725097656</ele>
        <time>2013-06-15T09:44:05Z</time>
      </trkpt>
      <trkpt lat="43.55186" lon="6.13933">
        <ele>350.05725097656</ele>
        <time>2013-06-15T09:44:18Z</time>
      </trkpt>
      <trkpt lat="43.5519" lon="6.13928">
        <ele>350.53784179688</ele>
        <time>2013-06-15T09:44:24Z</time>
      </trkpt>
      <trkpt lat="43.55203" lon="6.13914">
        <ele>351.01843261719</ele>
        <time>2013-06-15T09:44:38Z</time>
      </trkpt>
      <trkpt lat="43.55213" lon="6.13911">
        <ele>351.49914550781</ele>
        <time>2013-06-15T09:44:52Z</time>
      </trkpt>
      <trkpt lat="43.55216" lon="6.13912">
        <ele>351.49914550781</ele>
        <time>2013-06-15T09:45:01Z</time>
      </trkpt>
      <trkpt lat="43.55229" lon="6.13921">
        <ele>352.46057128906</ele>
        <time>2013-06-15T09:45:14Z</time>
      </trkpt>
      <trkpt lat="43.55241" lon="6.1393">
        <ele>352.94116210938</ele>
        <time>2013-06-15T09:45:30Z</time>
      </trkpt>
      <trkpt lat="43.55257" lon="6.1394">
        <ele>353.90258789062</ele>
        <time>2013-06-15T09:45:46Z</time>
      </trkpt>
      <trkpt lat="43.55261" lon="6.13942">
        <ele>355.34448242188</ele>
        <time>2013-06-15T09:45:51Z</time>
      </trkpt>
      <trkpt lat="43.55263" lon="6.13942">
        <ele>354.86376953125</ele>
        <time>2013-06-15T09:45:55Z</time>
      </trkpt>
      <trkpt lat="43.55278" lon="6.13941">
        <ele>354.38317871094</ele>
        <time>2013-06-15T09:46:10Z</time>
      </trkpt>
      <trkpt lat="43.5528" lon="6.13931">
        <ele>353.90258789062</ele>
        <time>2013-06-15T09:46:22Z</time>
      </trkpt>
      <trkpt lat="43.55284" lon="6.13924">
        <ele>352.94116210938</ele>
        <time>2013-06-15T09:46:35Z</time>
      </trkpt>
      <trkpt lat="43.55285" lon="6.13924">
        <ele>352.94116210938</ele>
        <time>2013-06-15T09:46:40Z</time>
      </trkpt>
      <trkpt lat="43.55285" lon="6.13905">
        <ele>353.421875</ele>
        <time>2013-06-15T09:46:55Z</time>
      </trkpt>
      <trkpt lat="43.55286" lon="6.13903">
        <ele>353.90258789062</ele>
        <time>2013-06-15T09:46:57Z</time>
      </trkpt>
      <trkpt lat="43.5529" lon="6.1387">
        <ele>355.34448242188</ele>
        <time>2013-06-15T10:01:06Z</time>
      </trkpt>
      <trkpt lat="43.55293" lon="6.13859">
        <ele>355.8251953125</ele>
        <time>2013-06-15T10:01:33Z</time>
      </trkpt>
      <trkpt lat="43.55295" lon="6.13837">
        <ele>355.34448242188</ele>
        <time>2013-06-15T10:01:49Z</time>
      </trkpt>
      <trkpt lat="43.55299" lon="6.1382">
        <ele>355.34448242188</ele>
        <time>2013-06-15T10:02:02Z</time>
      </trkpt>
      <trkpt lat="43.55299" lon="6.13815">
        <ele>355.8251953125</ele>
        <time>2013-06-15T10:02:06Z</time>
      </trkpt>
      <trkpt lat="43.55301" lon="6.13791">
        <ele>355.8251953125</ele>
        <time>2013-06-15T10:02:21Z</time>
      </trkpt>
      <trkpt lat="43.55305" lon="6.1377">
        <ele>356.78637695312</ele>
        <time>2013-06-15T10:02:38Z</time>
      </trkpt>
      <trkpt lat="43.55308" lon="6.13745">
        <ele>357.26708984375</ele>
        <time>2013-06-15T10:02:56Z</time>
      </trkpt>
      <trkpt lat="43.55312" lon="6.13722">
        <ele>357.26708984375</ele>
        <time>2013-06-15T10:03:12Z</time>
      </trkpt>
      <trkpt lat="43.55311" lon="6.137">
        <ele>357.26708984375</ele>
        <time>2013-06-15T10:03:25Z</time>
      </trkpt>
      <trkpt lat="43.55309" lon="6.13682">
        <ele>357.26708984375</ele>
        <time>2013-06-15T10:03:38Z</time>
      </trkpt>
      <trkpt lat="43.55308" lon="6.13678">
        <ele>356.78637695312</ele>
        <time>2013-06-15T10:03:41Z</time>
      </trkpt>
      <trkpt lat="43.55302" lon="6.13656">
        <ele>356.30578613281</ele>
        <time>2013-06-15T10:03:55Z</time>
      </trkpt>
      <trkpt lat="43.55299" lon="6.13644">
        <ele>356.30578613281</ele>
        <time>2013-06-15T10:04:05Z</time>
      </trkpt>
      <trkpt lat="43.55293" lon="6.13621">
        <ele>354.86376953125</ele>
        <time>2013-06-15T10:04:21Z</time>
      </trkpt>
      <trkpt lat="43.55287" lon="6.13599">
        <ele>354.86376953125</ele>
        <time>2013-06-15T10:04:36Z</time>
      </trkpt>
      <trkpt lat="43.55285" lon="6.13577">
        <ele>354.86376953125</ele>
        <time>2013-06-15T10:04:51Z</time>
      </trkpt>
      <trkpt lat="43.55279" lon="6.13549">
        <ele>354.86376953125</ele>
        <time>2013-06-15T10:05:08Z</time>
      </trkpt>
      <trkpt lat="43.5528" lon="6.1353">
        <ele>355.8251953125</ele>
        <time>2013-06-15T10:05:24Z</time>
      </trkpt>
      <trkpt lat="43.55282" lon="6.13519">
        <ele>355.8251953125</ele>
        <time>2013-06-15T10:05:53Z</time>
      </trkpt>
      <trkpt lat="43.55278" lon="6.13498">
        <ele>355.34448242188</ele>
        <time>2013-06-15T10:06:15Z</time>
      </trkpt>
      <trkpt lat="43.55276" lon="6.13476">
        <ele>355.8251953125</ele>
        <time>2013-06-15T10:06:31Z</time>
      </trkpt>
      <trkpt lat="43.55272" lon="6.13452">
        <ele>356.78637695312</ele>
        <time>2013-06-15T10:06:47Z</time>
      </trkpt>
      <trkpt lat="43.55274" lon="6.13435">
        <ele>357.74780273438</ele>
        <time>2013-06-15T10:07:00Z</time>
      </trkpt>
      <trkpt lat="43.55274" lon="6.13429">
        <ele>357.74780273438</ele>
        <time>2013-06-15T10:07:04Z</time>
      </trkpt>
      <trkpt lat="43.55275" lon="6.13406">
        <ele>358.22839355469</ele>
        <time>2013-06-15T10:07:17Z</time>
      </trkpt>
      <trkpt lat="43.55275" lon="6.13389">
        <ele>358.708984375</ele>
        <time>2013-06-15T10:07:27Z</time>
      </trkpt>
      <trkpt lat="43.55273" lon="6.13368">
        <ele>359.18969726562</ele>
        <time>2013-06-15T10:07:41Z</time>
      </trkpt>
      <trkpt lat="43.55271" lon="6.13355">
        <ele>359.18969726562</ele>
        <time>2013-06-15T10:07:53Z</time>
      </trkpt>
      <trkpt lat="43.55268" lon="6.1333">
        <ele>360.15112304688</ele>
        <time>2013-06-15T10:08:10Z</time>
      </trkpt>
      <trkpt lat="43.55268" lon="6.1331">
        <ele>360.63171386719</ele>
        <time>2013-06-15T10:08:25Z</time>
      </trkpt>
      <trkpt lat="43.55263" lon="6.13291">
        <ele>360.63171386719</ele>
        <time>2013-06-15T10:08:40Z</time>
      </trkpt>
      <trkpt lat="43.55254" lon="6.13279">
        <ele>360.15112304688</ele>
        <time>2013-06-15T10:08:53Z</time>
      </trkpt>
      <trkpt lat="43.55251" lon="6.13276">
        <ele>362.07373046875</ele>
        <time>2013-06-15T10:08:57Z</time>
      </trkpt>
      <trkpt lat="43.5525" lon="6.13272">
        <ele>360.15112304688</ele>
        <time>2013-06-15T10:08:59Z</time>
      </trkpt>
      <trkpt lat="43.55249" lon="6.1327">
        <ele>360.15112304688</ele>
        <time>2013-06-15T10:09:01Z</time>
      </trkpt>
      <trkpt lat="43.55248" lon="6.13264">
        <ele>360.15112304688</ele>
        <time>2013-06-15T10:09:07Z</time>
      </trkpt>
      <trkpt lat="43.55249" lon="6.13252">
        <ele>360.15112304688</ele>
        <time>2013-06-15T10:09:15Z</time>
      </trkpt>
      <trkpt lat="43.55251" lon="6.13247">
        <ele>359.67041015625</ele>
        <time>2013-06-15T10:09:20Z</time>
      </trkpt>
      <trkpt lat="43.5526" lon="6.1323">
        <ele>360.15112304688</ele>
        <time>2013-06-15T10:09:36Z</time>
      </trkpt>
      <trkpt lat="43.55272" lon="6.13217">
        <ele>360.63171386719</ele>
        <time>2013-06-15T10:09:51Z</time>
      </trkpt>
      <trkpt lat="43.55284" lon="6.13209">
        <ele>360.63171386719</ele>
        <time>2013-06-15T10:10:12Z</time>
      </trkpt>
      <trkpt lat="43.55283" lon="6.13198">
        <ele>360.15112304688</ele>
        <time>2013-06-15T10:10:32Z</time>
      </trkpt>
      <trkpt lat="43.55293" lon="6.1318">
        <ele>360.63171386719</ele>
        <time>2013-06-15T10:10:49Z</time>
      </trkpt>
      <trkpt lat="43.55297" lon="6.13155">
        <ele>361.59313964844</ele>
        <time>2013-06-15T10:11:08Z</time>
      </trkpt>
      <trkpt lat="43.55296" lon="6.13138">
        <ele>361.11242675781</ele>
        <time>2013-06-15T10:11:40Z</time>
      </trkpt>
      <trkpt lat="43.55293" lon="6.13122">
        <ele>361.11242675781</ele>
        <time>2013-06-15T10:11:51Z</time>
      </trkpt>
      <trkpt lat="43.55285" lon="6.131">
        <ele>361.11242675781</ele>
        <time>2013-06-15T10:12:06Z</time>
      </trkpt>
      <trkpt lat="43.55279" lon="6.13086">
        <ele>361.11242675781</ele>
        <time>2013-06-15T10:12:21Z</time>
      </trkpt>
      <trkpt lat="43.55276" lon="6.13065">
        <ele>361.11242675781</ele>
        <time>2013-06-15T10:12:39Z</time>
      </trkpt>
      <trkpt lat="43.55273" lon="6.13045">
        <ele>360.63171386719</ele>
        <time>2013-06-15T10:12:57Z</time>
      </trkpt>
      <trkpt lat="43.55264" lon="6.13026">
        <ele>361.11242675781</ele>
        <time>2013-06-15T10:13:16Z</time>
      </trkpt>
      <trkpt lat="43.55262" lon="6.13007">
        <ele>361.11242675781</ele>
        <time>2013-06-15T10:13:32Z</time>
      </trkpt>
      <trkpt lat="43.55263" lon="6.12992">
        <ele>361.59313964844</ele>
        <time>2013-06-15T10:13:45Z</time>
      </trkpt>
      <trkpt lat="43.55257" lon="6.12979">
        <ele>362.07373046875</ele>
        <time>2013-06-15T10:13:52Z</time>
      </trkpt>
      <trkpt lat="43.55256" lon="6.12975">
        <ele>362.07373046875</ele>
        <time>2013-06-15T10:13:54Z</time>
      </trkpt>
      <trkpt lat="43.55262" lon="6.12957">
        <ele>361.59313964844</ele>
        <time>2013-06-15T10:14:10Z</time>
      </trkpt>
      <trkpt lat="43.55258" lon="6.12942">
        <ele>361.59313964844</ele>
        <time>2013-06-15T10:14:27Z</time>
      </trkpt>
      <trkpt lat="43.55245" lon="6.12951">
        <ele>362.55432128906</ele>
        <time>2013-06-15T10:14:47Z</time>
      </trkpt>
      <trkpt lat="43.55233" lon="6.12971">
        <ele>363.99633789062</ele>
        <time>2013-06-15T10:15:06Z</time>
      </trkpt>
      <trkpt lat="43.55223" lon="6.12989">
        <ele>366.39953613281</ele>
        <time>2013-06-15T10:15:25Z</time>
      </trkpt>
      <trkpt lat="43.55214" lon="6.13002">
        <ele>368.322265625</ele>
        <time>2013-06-15T10:15:41Z</time>
      </trkpt>
      <trkpt lat="43.55202" lon="6.13021">
        <ele>370.24487304688</ele>
        <time>2013-06-15T10:16:00Z</time>
      </trkpt>
      <trkpt lat="43.55194" lon="6.13035">
        <ele>371.68688964844</ele>
        <time>2013-06-15T10:16:18Z</time>
      </trkpt>
      <trkpt lat="43.55189" lon="6.13047">
        <ele>372.64819335938</ele>
        <time>2013-06-15T10:16:32Z</time>
      </trkpt>
      <trkpt lat="43.55182" lon="6.13063">
        <ele>373.60949707031</ele>
        <time>2013-06-15T10:16:48Z</time>
      </trkpt>
      <trkpt lat="43.55177" lon="6.13072">
        <ele>374.09008789062</ele>
        <time>2013-06-15T10:16:55Z</time>
      </trkpt>
      <trkpt lat="43.55169" lon="6.13092">
        <ele>375.53210449219</ele>
        <time>2013-06-15T10:17:11Z</time>
      </trkpt>
      <trkpt lat="43.55168" lon="6.13096">
        <ele>375.53210449219</ele>
        <time>2013-06-15T10:17:14Z</time>
      </trkpt>
      <trkpt lat="43.55166" lon="6.13102">
        <ele>375.05151367188</ele>
        <time>2013-06-15T10:17:20Z</time>
      </trkpt>
      <trkpt lat="43.55158" lon="6.13119">
        <ele>374.09008789062</ele>
        <time>2013-06-15T10:17:34Z</time>
      </trkpt>
      <trkpt lat="43.55147" lon="6.13144">
        <ele>374.57080078125</ele>
        <time>2013-06-15T10:17:52Z</time>
      </trkpt>
      <trkpt lat="43.55136" lon="6.13165">
        <ele>375.05151367188</ele>
        <time>2013-06-15T10:18:10Z</time>
      </trkpt>
      <trkpt lat="43.55124" lon="6.13187">
        <ele>375.53210449219</ele>
        <time>2013-06-15T10:18:30Z</time>
      </trkpt>
      <trkpt lat="43.55108" lon="6.13201">
        <ele>376.01281738281</ele>
        <time>2013-06-15T10:18:48Z</time>
      </trkpt>
      <trkpt lat="43.55101" lon="6.13207">
        <ele>376.49353027344</ele>
        <time>2013-06-15T10:18:55Z</time>
      </trkpt>
      <trkpt lat="43.55091" lon="6.13219">
        <ele>376.49353027344</ele>
        <time>2013-06-15T10:19:08Z</time>
      </trkpt>
      <trkpt lat="43.55085" lon="6.13231">
        <ele>376.97424316406</ele>
        <time>2013-06-15T10:19:20Z</time>
      </trkpt>
      <trkpt lat="43.55071" lon="6.13242">
        <ele>377.93542480469</ele>
        <time>2013-06-15T10:19:37Z</time>
      </trkpt>
      <trkpt lat="43.55059" lon="6.13256">
        <ele>379.37744140625</ele>
        <time>2013-06-15T10:19:53Z</time>
      </trkpt>
      <trkpt lat="43.55055" lon="6.13258">
        <ele>379.37744140625</ele>
        <time>2013-06-15T10:19:56Z</time>
      </trkpt>
      <trkpt lat="43.55053" lon="6.1326">
        <ele>379.37744140625</ele>
        <time>2013-06-15T10:19:59Z</time>
      </trkpt>
      <trkpt lat="43.55043" lon="6.13278">
        <ele>379.37744140625</ele>
        <time>2013-06-15T10:20:14Z</time>
      </trkpt>
      <trkpt lat="43.55034" lon="6.13293">
        <ele>380.81945800781</ele>
        <time>2013-06-15T10:20:28Z</time>
      </trkpt>
      <trkpt lat="43.55026" lon="6.13306">
        <ele>380.33874511719</ele>
        <time>2013-06-15T10:20:40Z</time>
      </trkpt>
      <trkpt lat="43.55017" lon="6.1332">
        <ele>380.33874511719</ele>
        <time>2013-06-15T10:20:53Z</time>
      </trkpt>
      <trkpt lat="43.55009" lon="6.13333">
        <ele>379.85803222656</ele>
        <time>2013-06-15T10:21:05Z</time>
      </trkpt>
      <trkpt lat="43.55008" lon="6.13334">
        <ele>379.85803222656</ele>
        <time>2013-06-15T10:21:06Z</time>
      </trkpt>
      <trkpt lat="43.55005" lon="6.1334">
        <ele>379.85803222656</ele>
        <time>2013-06-15T10:21:10Z</time>
      </trkpt>
      <trkpt lat="43.54998" lon="6.13356">
        <ele>379.37744140625</ele>
        <time>2013-06-15T10:21:23Z</time>
      </trkpt>
      <trkpt lat="43.54998" lon="6.13358">
        <ele>379.37744140625</ele>
        <time>2013-06-15T10:21:24Z</time>
      </trkpt>
      <trkpt lat="43.54993" lon="6.13377">
        <ele>378.89685058594</ele>
        <time>2013-06-15T10:21:35Z</time>
      </trkpt>
      <trkpt lat="43.54992" lon="6.1338">
        <ele>378.89685058594</ele>
        <time>2013-06-15T10:21:37Z</time>
      </trkpt>
      <trkpt lat="43.54983" lon="6.13397">
        <ele>378.89685058594</ele>
        <time>2013-06-15T10:21:50Z</time>
      </trkpt>
      <trkpt lat="43.54971" lon="6.13406">
        <ele>378.89685058594</ele>
        <time>2013-06-15T10:22:03Z</time>
      </trkpt>
      <trkpt lat="43.54958" lon="6.13411">
        <ele>379.37744140625</ele>
        <time>2013-06-15T10:22:17Z</time>
      </trkpt>
      <trkpt lat="43.54943" lon="6.13417">
        <ele>380.81945800781</ele>
        <time>2013-06-15T10:22:35Z</time>
      </trkpt>
      <trkpt lat="43.54934" lon="6.13418">
        <ele>381.30004882812</ele>
        <time>2013-06-15T10:22:42Z</time>
      </trkpt>
      <trkpt lat="43.54918" lon="6.13425">
        <ele>383.22265625</ele>
        <time>2013-06-15T10:23:00Z</time>
      </trkpt>
      <trkpt lat="43.54899" lon="6.13429">
        <ele>385.6259765625</ele>
        <time>2013-06-15T10:23:23Z</time>
      </trkpt>
      <trkpt lat="43.54884" lon="6.13433">
        <ele>387.54858398438</ele>
        <time>2013-06-15T10:23:45Z</time>
      </trkpt>
      <trkpt lat="43.5487" lon="6.13442">
        <ele>388.51000976562</ele>
        <time>2013-06-15T10:24:01Z</time>
      </trkpt>
      <trkpt lat="43.5486" lon="6.13451">
        <ele>388.51000976562</ele>
        <time>2013-06-15T10:24:16Z</time>
      </trkpt>
      <trkpt lat="43.54846" lon="6.13457">
        <ele>388.029296875</ele>
        <time>2013-06-15T10:25:05Z</time>
      </trkpt>
      <trkpt lat="43.54836" lon="6.13464">
        <ele>388.029296875</ele>
        <time>2013-06-15T10:25:18Z</time>
      </trkpt>
      <trkpt lat="43.54823" lon="6.13472">
        <ele>386.58740234375</ele>
        <time>2013-06-15T10:25:33Z</time>
      </trkpt>
      <trkpt lat="43.54818" lon="6.13477">
        <ele>386.58740234375</ele>
        <time>2013-06-15T10:25:56Z</time>
      </trkpt>
      <trkpt lat="43.54805" lon="6.1349">
        <ele>385.6259765625</ele>
        <time>2013-06-15T10:26:20Z</time>
      </trkpt>
      <trkpt lat="43.54804" lon="6.1349">
        <ele>385.6259765625</ele>
        <time>2013-06-15T10:26:21Z</time>
      </trkpt>
      <trkpt lat="43.5479" lon="6.13499">
        <ele>385.14538574219</ele>
        <time>2013-06-15T10:26:34Z</time>
      </trkpt>
      <trkpt lat="43.54776" lon="6.13509">
        <ele>384.66479492188</ele>
        <time>2013-06-15T10:26:51Z</time>
      </trkpt>
      <trkpt lat="43.54759" lon="6.13521">
        <ele>384.18408203125</ele>
        <time>2013-06-15T10:27:09Z</time>
      </trkpt>
      <trkpt lat="43.54741" lon="6.13531">
        <ele>383.70324707031</ele>
        <time>2013-06-15T10:27:27Z</time>
      </trkpt>
      <trkpt lat="43.54726" lon="6.13539">
        <ele>382.74206542969</ele>
        <time>2013-06-15T10:27:44Z</time>
      </trkpt>
      <trkpt lat="43.54712" lon="6.13549">
        <ele>382.74206542969</ele>
        <time>2013-06-15T10:28:01Z</time>
      </trkpt>
      <trkpt lat="43.54695" lon="6.13559">
        <ele>382.26135253906</ele>
        <time>2013-06-15T10:28:19Z</time>
      </trkpt>
      <trkpt lat="43.54687" lon="6.13565">
        <ele>382.26135253906</ele>
        <time>2013-06-15T10:28:29Z</time>
      </trkpt>
      <trkpt lat="43.54671" lon="6.13575">
        <ele>382.74206542969</ele>
        <time>2013-06-15T10:28:45Z</time>
      </trkpt>
      <trkpt lat="43.54662" lon="6.13584">
        <ele>382.74206542969</ele>
        <time>2013-06-15T10:29:01Z</time>
      </trkpt>
      <trkpt lat="43.54654" lon="6.13598">
        <ele>382.74206542969</ele>
        <time>2013-06-15T10:29:28Z</time>
      </trkpt>
      <trkpt lat="43.54638" lon="6.13616">
        <ele>384.66479492188</ele>
        <time>2013-06-15T10:29:48Z</time>
      </trkpt>
      <trkpt lat="43.54621" lon="6.1363">
        <ele>384.66479492188</ele>
        <time>2013-06-15T10:30:07Z</time>
      </trkpt>
      <trkpt lat="43.54613" lon="6.13636">
        <ele>384.66479492188</ele>
        <time>2013-06-15T10:30:26Z</time>
      </trkpt>
      <trkpt lat="43.54597" lon="6.13645">
        <ele>385.14538574219</ele>
        <time>2013-06-15T10:30:44Z</time>
      </trkpt>
      <trkpt lat="43.54584" lon="6.13653">
        <ele>385.6259765625</ele>
        <time>2013-06-15T10:31:02Z</time>
      </trkpt>
      <trkpt lat="43.54569" lon="6.13658">
        <ele>386.10668945312</ele>
        <time>2013-06-15T10:31:22Z</time>
      </trkpt>
      <trkpt lat="43.54552" lon="6.13662">
        <ele>387.06799316406</ele>
        <time>2013-06-15T10:31:41Z</time>
      </trkpt>
      <trkpt lat="43.54536" lon="6.13661">
        <ele>388.029296875</ele>
        <time>2013-06-15T10:32:01Z</time>
      </trkpt>
      <trkpt lat="43.54517" lon="6.1367">
        <ele>388.51000976562</ele>
        <time>2013-06-15T10:32:20Z</time>
      </trkpt>
      <trkpt lat="43.54501" lon="6.13679">
        <ele>389.47119140625</ele>
        <time>2013-06-15T10:32:34Z</time>
      </trkpt>
      <trkpt lat="43.54488" lon="6.13687">
        <ele>389.47119140625</ele>
        <time>2013-06-15T10:32:49Z</time>
      </trkpt>
      <trkpt lat="43.54473" lon="6.13699">
        <ele>389.47119140625</ele>
        <time>2013-06-15T10:33:08Z</time>
      </trkpt>
      <trkpt lat="43.54459" lon="6.13699">
        <ele>389.47119140625</ele>
        <time>2013-06-15T10:33:23Z</time>
      </trkpt>
      <trkpt lat="43.54453" lon="6.13699">
        <ele>389.47119140625</ele>
        <time>2013-06-15T10:33:28Z</time>
      </trkpt>
      <trkpt lat="43.54447" lon="6.13698">
        <ele>390.4326171875</ele>
        <time>2013-06-15T10:33:33Z</time>
      </trkpt>
      <trkpt lat="43.54435" lon="6.13692">
        <ele>390.4326171875</ele>
        <time>2013-06-15T10:33:50Z</time>
      </trkpt>
      <trkpt lat="43.54417" lon="6.13687">
        <ele>391.87451171875</ele>
        <time>2013-06-15T10:34:12Z</time>
      </trkpt>
      <trkpt lat="43.54404" lon="6.13683">
        <ele>391.39379882812</ele>
        <time>2013-06-15T10:34:24Z</time>
      </trkpt>
      <trkpt lat="43.54389" lon="6.13678">
        <ele>391.87451171875</ele>
        <time>2013-06-15T10:34:38Z</time>
      </trkpt>
      <trkpt lat="43.54376" lon="6.13672">
        <ele>391.87451171875</ele>
        <time>2013-06-15T10:34:51Z</time>
      </trkpt>
      <trkpt lat="43.5437" lon="6.13666">
        <ele>392.35534667969</ele>
        <time>2013-06-15T10:35:12Z</time>
      </trkpt>
      <trkpt lat="43.54359" lon="6.13654">
        <ele>391.87451171875</ele>
        <time>2013-06-15T10:35:33Z</time>
      </trkpt>
      <trkpt lat="43.54343" lon="6.1364">
        <ele>390.91320800781</ele>
        <time>2013-06-15T10:35:52Z</time>
      </trkpt>
      <trkpt lat="43.54333" lon="6.13625">
        <ele>389.95190429688</ele>
        <time>2013-06-15T10:36:07Z</time>
      </trkpt>
      <trkpt lat="43.54321" lon="6.13609">
        <ele>389.95190429688</ele>
        <time>2013-06-15T10:36:25Z</time>
      </trkpt>
      <trkpt lat="43.54311" lon="6.13603">
        <ele>388.029296875</ele>
        <time>2013-06-15T10:36:39Z</time>
      </trkpt>
      <trkpt lat="43.54296" lon="6.13605">
        <ele>386.58740234375</ele>
        <time>2013-06-15T10:36:55Z</time>
      </trkpt>
      <trkpt lat="43.54288" lon="6.13606">
        <ele>386.10668945312</ele>
        <time>2013-06-15T10:37:03Z</time>
      </trkpt>
      <trkpt lat="43.54276" lon="6.13604">
        <ele>385.14538574219</ele>
        <time>2013-06-15T10:37:16Z</time>
      </trkpt>
      <trkpt lat="43.54265" lon="6.13603">
        <ele>384.18408203125</ele>
        <time>2013-06-15T10:37:29Z</time>
      </trkpt>
      <trkpt lat="43.54252" lon="6.13604">
        <ele>382.74206542969</ele>
        <time>2013-06-15T10:37:46Z</time>
      </trkpt>
      <trkpt lat="43.54235" lon="6.13606">
        <ele>382.26135253906</ele>
        <time>2013-06-15T10:38:02Z</time>
      </trkpt>
      <trkpt lat="43.54224" lon="6.13604">
        <ele>381.78063964844</ele>
        <time>2013-06-15T10:38:15Z</time>
      </trkpt>
      <trkpt lat="43.54209" lon="6.13602">
        <ele>381.30004882812</ele>
        <time>2013-06-15T10:38:30Z</time>
      </trkpt>
      <trkpt lat="43.54194" lon="6.136">
        <ele>380.33874511719</ele>
        <time>2013-06-15T10:38:46Z</time>
      </trkpt>
      <trkpt lat="43.54181" lon="6.13602">
        <ele>379.85803222656</ele>
        <time>2013-06-15T10:39:01Z</time>
      </trkpt>
      <trkpt lat="43.54181" lon="6.13604">
        <ele>379.85803222656</ele>
        <time>2013-06-15T10:39:32Z</time>
      </trkpt>
      <trkpt lat="43.54179" lon="6.13602">
        <ele>376.01281738281</ele>
        <time>2013-06-15T10:41:37Z</time>
      </trkpt>
      <trkpt lat="43.54179" lon="6.13602">
        <ele>379.85803222656</ele>
        <time>2013-06-15T10:41:38Z</time>
      </trkpt>
      <trkpt lat="43.54171" lon="6.13602">
        <ele>378.89685058594</ele>
        <time>2013-06-15T10:42:04Z</time>
      </trkpt>
      <trkpt lat="43.54158" lon="6.13605">
        <ele>377.93542480469</ele>
        <time>2013-06-15T10:42:21Z</time>
      </trkpt>
      <trkpt lat="43.54152" lon="6.13606">
        <ele>377.45483398438</ele>
        <time>2013-06-15T10:42:37Z</time>
      </trkpt>
      <trkpt lat="43.54142" lon="6.13599">
        <ele>376.49353027344</ele>
        <time>2013-06-15T10:42:52Z</time>
      </trkpt>
      <trkpt lat="43.54131" lon="6.13585">
        <ele>375.53210449219</ele>
        <time>2013-06-15T10:43:07Z</time>
      </trkpt>
      <trkpt lat="43.54128" lon="6.13571">
        <ele>375.05151367188</ele>
        <time>2013-06-15T10:43:21Z</time>
      </trkpt>
      <trkpt lat="43.54133" lon="6.1355">
        <ele>373.60949707031</ele>
        <time>2013-06-15T10:43:38Z</time>
      </trkpt>
      <trkpt lat="43.54123" lon="6.13558">
        <ele>373.60949707031</ele>
        <time>2013-06-15T10:43:54Z</time>
      </trkpt>
      <trkpt lat="43.54122" lon="6.13558">
        <ele>373.60949707031</ele>
        <time>2013-06-15T10:43:55Z</time>
      </trkpt>
      <trkpt lat="43.54112" lon="6.13569">
        <ele>373.12890625</ele>
        <time>2013-06-15T10:44:11Z</time>
      </trkpt>
      <trkpt lat="43.54102" lon="6.13585">
        <ele>372.16748046875</ele>
        <time>2013-06-15T10:44:28Z</time>
      </trkpt>
      <trkpt lat="43.54094" lon="6.13602">
        <ele>372.64819335938</ele>
        <time>2013-06-15T10:44:43Z</time>
      </trkpt>
      <trkpt lat="43.54084" lon="6.13617">
        <ele>373.60949707031</ele>
        <time>2013-06-15T10:44:58Z</time>
      </trkpt>
      <trkpt lat="43.54075" lon="6.13632">
        <ele>373.12890625</ele>
        <time>2013-06-15T10:45:12Z</time>
      </trkpt>
      <trkpt lat="43.54071" lon="6.13646">
        <ele>372.64819335938</ele>
        <time>2013-06-15T10:45:27Z</time>
      </trkpt>
      <trkpt lat="43.54065" lon="6.13658">
        <ele>371.68688964844</ele>
        <time>2013-06-15T10:45:42Z</time>
      </trkpt>
      <trkpt lat="43.54057" lon="6.1368">
        <ele>370.7255859375</ele>
        <time>2013-06-15T10:45:59Z</time>
      </trkpt>
      <trkpt lat="43.54058" lon="6.13686">
        <ele>370.7255859375</ele>
        <time>2013-06-15T10:46:04Z</time>
      </trkpt>
      <trkpt lat="43.54051" lon="6.13712">
        <ele>370.24487304688</ele>
        <time>2013-06-15T10:46:25Z</time>
      </trkpt>
      <trkpt lat="43.54039" lon="6.13733">
        <ele>369.76428222656</ele>
        <time>2013-06-15T10:46:42Z</time>
      </trkpt>
      <trkpt lat="43.54038" lon="6.13735">
        <ele>369.76428222656</ele>
        <time>2013-06-15T10:46:43Z</time>
      </trkpt>
      <trkpt lat="43.54034" lon="6.13752">
        <ele>369.76428222656</ele>
        <time>2013-06-15T10:46:59Z</time>
      </trkpt>
      <trkpt lat="43.54027" lon="6.13771">
        <ele>369.28369140625</ele>
        <time>2013-06-15T10:47:14Z</time>
      </trkpt>
      <trkpt lat="43.54025" lon="6.13773">
        <ele>369.28369140625</ele>
        <time>2013-06-15T10:47:16Z</time>
      </trkpt>
      <trkpt lat="43.54015" lon="6.13785">
        <ele>369.28369140625</ele>
        <time>2013-06-15T10:47:30Z</time>
      </trkpt>
      <trkpt lat="43.54012" lon="6.13789">
        <ele>369.28369140625</ele>
        <time>2013-06-15T10:47:43Z</time>
      </trkpt>
      <trkpt lat="43.5401" lon="6.13792">
        <ele>369.28369140625</ele>
        <time>2013-06-15T10:47:46Z</time>
      </trkpt>
      <trkpt lat="43.54004" lon="6.13806">
        <ele>369.28369140625</ele>
        <time>2013-06-15T10:48:02Z</time>
      </trkpt>
      <trkpt lat="43.53992" lon="6.1382">
        <ele>368.80297851562</ele>
        <time>2013-06-15T10:48:19Z</time>
      </trkpt>
      <trkpt lat="43.53977" lon="6.13833">
        <ele>369.76428222656</ele>
        <time>2013-06-15T10:48:36Z</time>
      </trkpt>
      <trkpt lat="43.53965" lon="6.13839">
        <ele>369.76428222656</ele>
        <time>2013-06-15T10:48:49Z</time>
      </trkpt>
      <trkpt lat="43.53959" lon="6.13839">
        <ele>369.28369140625</ele>
        <time>2013-06-15T10:49:04Z</time>
      </trkpt>
      <trkpt lat="43.53939" lon="6.13834">
        <ele>368.80297851562</ele>
        <time>2013-06-15T10:49:27Z</time>
      </trkpt>
      <trkpt lat="43.53929" lon="6.13835">
        <ele>368.322265625</ele>
        <time>2013-06-15T10:49:42Z</time>
      </trkpt>
      <trkpt lat="43.5392" lon="6.13831">
        <ele>367.84155273438</ele>
        <time>2013-06-15T10:50:11Z</time>
      </trkpt>
      <trkpt lat="43.53904" lon="6.13828">
        <ele>367.84155273438</ele>
        <time>2013-06-15T10:50:29Z</time>
      </trkpt>
      <trkpt lat="43.53889" lon="6.13832">
        <ele>367.84155273438</ele>
        <time>2013-06-15T10:50:48Z</time>
      </trkpt>
      <trkpt lat="43.53882" lon="6.1384">
        <ele>367.84155273438</ele>
        <time>2013-06-15T10:51:05Z</time>
      </trkpt>
      <trkpt lat="43.53868" lon="6.13847">
        <ele>367.84155273438</ele>
        <time>2013-06-15T10:51:22Z</time>
      </trkpt>
      <trkpt lat="43.53854" lon="6.13855">
        <ele>368.80297851562</ele>
        <time>2013-06-15T10:51:41Z</time>
      </trkpt>
      <trkpt lat="43.53839" lon="6.13865">
        <ele>368.322265625</ele>
        <time>2013-06-15T10:51:58Z</time>
      </trkpt>
      <trkpt lat="43.53828" lon="6.13888">
        <ele>368.322265625</ele>
        <time>2013-06-15T10:52:18Z</time>
      </trkpt>
      <trkpt lat="43.53818" lon="6.13902">
        <ele>368.322265625</ele>
        <time>2013-06-15T10:52:30Z</time>
      </trkpt>
      <trkpt lat="43.53804" lon="6.13918">
        <ele>366.88024902344</ele>
        <time>2013-06-15T10:52:47Z</time>
      </trkpt>
      <trkpt lat="43.5379" lon="6.1393">
        <ele>365.9189453125</ele>
        <time>2013-06-15T10:53:03Z</time>
      </trkpt>
      <trkpt lat="43.53789" lon="6.1393">
        <ele>365.9189453125</ele>
        <time>2013-06-15T10:53:04Z</time>
      </trkpt>
      <trkpt lat="43.53774" lon="6.13941">
        <ele>365.43835449219</ele>
        <time>2013-06-15T10:53:19Z</time>
      </trkpt>
      <trkpt lat="43.53759" lon="6.13948">
        <ele>363.99633789062</ele>
        <time>2013-06-15T10:53:39Z</time>
      </trkpt>
      <trkpt lat="43.5375" lon="6.13953">
        <ele>363.03503417969</ele>
        <time>2013-06-15T10:53:46Z</time>
      </trkpt>
      <trkpt lat="43.53744" lon="6.13955">
        <ele>363.03503417969</ele>
        <time>2013-06-15T10:53:50Z</time>
      </trkpt>
      <trkpt lat="43.53733" lon="6.13965">
        <ele>362.07373046875</ele>
        <time>2013-06-15T10:54:07Z</time>
      </trkpt>
      <trkpt lat="43.53727" lon="6.13987">
        <ele>360.63171386719</ele>
        <time>2013-06-15T10:54:26Z</time>
      </trkpt>
      <trkpt lat="43.53719" lon="6.13994">
        <ele>360.15112304688</ele>
        <time>2013-06-15T10:54:39Z</time>
      </trkpt>
      <trkpt lat="43.53718" lon="6.13994">
        <ele>360.15112304688</ele>
        <time>2013-06-15T10:54:40Z</time>
      </trkpt>
      <trkpt lat="43.53702" lon="6.1399">
        <ele>358.708984375</ele>
        <time>2013-06-15T10:54:55Z</time>
      </trkpt>
      <trkpt lat="43.53687" lon="6.13982">
        <ele>358.22839355469</ele>
        <time>2013-06-15T10:55:10Z</time>
      </trkpt>
      <trkpt lat="43.53673" lon="6.13973">
        <ele>357.74780273438</ele>
        <time>2013-06-15T10:55:24Z</time>
      </trkpt>
      <trkpt lat="43.53661" lon="6.13962">
        <ele>358.22839355469</ele>
        <time>2013-06-15T10:55:39Z</time>
      </trkpt>
      <trkpt lat="43.53652" lon="6.13951">
        <ele>358.708984375</ele>
        <time>2013-06-15T10:55:52Z</time>
      </trkpt>
      <trkpt lat="43.53642" lon="6.13943">
        <ele>359.67041015625</ele>
        <time>2013-06-15T10:56:08Z</time>
      </trkpt>
      <trkpt lat="43.53636" lon="6.13943">
        <ele>358.708984375</ele>
        <time>2013-06-15T10:56:23Z</time>
      </trkpt>
      <trkpt lat="43.53629" lon="6.13927">
        <ele>359.67041015625</ele>
        <time>2013-06-15T10:56:38Z</time>
      </trkpt>
      <trkpt lat="43.53628" lon="6.13926">
        <ele>359.18969726562</ele>
        <time>2013-06-15T10:56:40Z</time>
      </trkpt>
      <trkpt lat="43.53619" lon="6.13914">
        <ele>360.15112304688</ele>
        <time>2013-06-15T10:56:56Z</time>
      </trkpt>
      <trkpt lat="43.53613" lon="6.13907">
        <ele>360.15112304688</ele>
        <time>2013-06-15T10:57:15Z</time>
      </trkpt>
      <trkpt lat="43.53606" lon="6.13895">
        <ele>360.63171386719</ele>
        <time>2013-06-15T10:57:29Z</time>
      </trkpt>
      <trkpt lat="43.53597" lon="6.13883">
        <ele>361.11242675781</ele>
        <time>2013-06-15T10:57:46Z</time>
      </trkpt>
      <trkpt lat="43.53589" lon="6.13868">
        <ele>361.59313964844</ele>
        <time>2013-06-15T10:58:05Z</time>
      </trkpt>
      <trkpt lat="43.53586" lon="6.13858">
        <ele>363.03503417969</ele>
        <time>2013-06-15T10:58:17Z</time>
      </trkpt>
      <trkpt lat="43.53577" lon="6.13838">
        <ele>363.51574707031</ele>
        <time>2013-06-15T10:58:33Z</time>
      </trkpt>
      <trkpt lat="43.53569" lon="6.13823">
        <ele>364.95764160156</ele>
        <time>2013-06-15T10:58:48Z</time>
      </trkpt>
      <trkpt lat="43.53561" lon="6.13801">
        <ele>366.88024902344</ele>
        <time>2013-06-15T10:59:09Z</time>
      </trkpt>
      <trkpt lat="43.53558" lon="6.13782">
        <ele>367.84155273438</ele>
        <time>2013-06-15T10:59:26Z</time>
      </trkpt>
      <trkpt lat="43.53558" lon="6.13776">
        <ele>368.80297851562</ele>
        <time>2013-06-15T10:59:31Z</time>
      </trkpt>
      <trkpt lat="43.53551" lon="6.13756">
        <ele>369.76428222656</ele>
        <time>2013-06-15T10:59:48Z</time>
      </trkpt>
      <trkpt lat="43.53549" lon="6.13765">
        <ele>370.24487304688</ele>
        <time>2013-06-15T11:00:01Z</time>
      </trkpt>
      <trkpt lat="43.53547" lon="6.1377">
        <ele>369.76428222656</ele>
        <time>2013-06-15T11:00:06Z</time>
      </trkpt>
      <trkpt lat="43.53544" lon="6.13793">
        <ele>368.80297851562</ele>
        <time>2013-06-15T11:00:22Z</time>
      </trkpt>
      <trkpt lat="43.53544" lon="6.13797">
        <ele>368.322265625</ele>
        <time>2013-06-15T11:00:26Z</time>
      </trkpt>
      <trkpt lat="43.53545" lon="6.13817">
        <ele>367.36096191406</ele>
        <time>2013-06-15T11:00:42Z</time>
      </trkpt>
      <trkpt lat="43.53542" lon="6.13831">
        <ele>366.39953613281</ele>
        <time>2013-06-15T11:00:55Z</time>
      </trkpt>
      <trkpt lat="43.53541" lon="6.13853">
        <ele>365.9189453125</ele>
        <time>2013-06-15T11:01:11Z</time>
      </trkpt>
      <trkpt lat="43.53539" lon="6.13873">
        <ele>365.43835449219</ele>
        <time>2013-06-15T11:01:25Z</time>
      </trkpt>
      <trkpt lat="43.53536" lon="6.13885">
        <ele>365.43835449219</ele>
        <time>2013-06-15T11:01:38Z</time>
      </trkpt>
      <trkpt lat="43.5353" lon="6.13903">
        <ele>364.47692871094</ele>
        <time>2013-06-15T11:01:53Z</time>
      </trkpt>
      <trkpt lat="43.53521" lon="6.13921">
        <ele>363.99633789062</ele>
        <time>2013-06-15T11:02:09Z</time>
      </trkpt>
      <trkpt lat="43.53522" lon="6.13923">
        <ele>363.51574707031</ele>
        <time>2013-06-15T11:02:38Z</time>
      </trkpt>
      <trkpt lat="43.53521" lon="6.13924">
        <ele>363.99633789062</ele>
        <time>2013-06-15T11:09:45Z</time>
      </trkpt>
      <trkpt lat="43.53501" lon="6.13926">
        <ele>363.51574707031</ele>
        <time>2013-06-15T11:10:02Z</time>
      </trkpt>
      <trkpt lat="43.53498" lon="6.13933">
        <ele>363.51574707031</ele>
        <time>2013-06-15T11:10:17Z</time>
      </trkpt>
      <trkpt lat="43.53496" lon="6.13938">
        <ele>360.15112304688</ele>
        <time>2013-06-15T11:10:33Z</time>
      </trkpt>
      <trkpt lat="43.53491" lon="6.13949">
        <ele>357.74780273438</ele>
        <time>2013-06-15T11:10:47Z</time>
      </trkpt>
      <trkpt lat="43.53492" lon="6.13979">
        <ele>362.07373046875</ele>
        <time>2013-06-15T11:46:11Z</time>
      </trkpt>
      <trkpt lat="43.53496" lon="6.14">
        <ele>360.15112304688</ele>
        <time>2013-06-15T11:46:49Z</time>
      </trkpt>
      <trkpt lat="43.53496" lon="6.14001">
        <ele>360.63171386719</ele>
        <time>2013-06-15T11:46:50Z</time>
      </trkpt>
      <trkpt lat="43.53502" lon="6.14023">
        <ele>360.15112304688</ele>
        <time>2013-06-15T11:47:08Z</time>
      </trkpt>
      <trkpt lat="43.535" lon="6.14049">
        <ele>359.18969726562</ele>
        <time>2013-06-15T11:47:28Z</time>
      </trkpt>
      <trkpt lat="43.53493" lon="6.14053">
        <ele>359.67041015625</ele>
        <time>2013-06-15T11:47:37Z</time>
      </trkpt>
      <trkpt lat="43.53492" lon="6.14056">
        <ele>359.18969726562</ele>
        <time>2013-06-15T11:47:40Z</time>
      </trkpt>
      <trkpt lat="43.53489" lon="6.14059">
        <ele>359.18969726562</ele>
        <time>2013-06-15T11:47:43Z</time>
      </trkpt>
      <trkpt lat="43.53481" lon="6.14063">
        <ele>358.708984375</ele>
        <time>2013-06-15T11:47:59Z</time>
      </trkpt>
      <trkpt lat="43.53466" lon="6.14074">
        <ele>357.74780273438</ele>
        <time>2013-06-15T11:48:15Z</time>
      </trkpt>
      <trkpt lat="43.53451" lon="6.14083">
        <ele>357.74780273438</ele>
        <time>2013-06-15T11:48:29Z</time>
      </trkpt>
      <trkpt lat="43.53437" lon="6.14096">
        <ele>357.26708984375</ele>
        <time>2013-06-15T11:48:43Z</time>
      </trkpt>
      <trkpt lat="43.53434" lon="6.14101">
        <ele>357.26708984375</ele>
        <time>2013-06-15T11:48:47Z</time>
      </trkpt>
      <trkpt lat="43.53429" lon="6.14105">
        <ele>356.78637695312</ele>
        <time>2013-06-15T11:48:53Z</time>
      </trkpt>
      <trkpt lat="43.53413" lon="6.14111">
        <ele>356.30578613281</ele>
        <time>2013-06-15T11:49:05Z</time>
      </trkpt>
      <trkpt lat="43.53408" lon="6.14116">
        <ele>355.8251953125</ele>
        <time>2013-06-15T11:49:11Z</time>
      </trkpt>
      <trkpt lat="43.534" lon="6.14119">
        <ele>355.8251953125</ele>
        <time>2013-06-15T11:49:17Z</time>
      </trkpt>
      <trkpt lat="43.53394" lon="6.14122">
        <ele>355.34448242188</ele>
        <time>2013-06-15T11:49:22Z</time>
      </trkpt>
      <trkpt lat="43.53392" lon="6.14123">
        <ele>355.34448242188</ele>
        <time>2013-06-15T11:49:24Z</time>
      </trkpt>
      <trkpt lat="43.53388" lon="6.14127">
        <ele>355.34448242188</ele>
        <time>2013-06-15T11:49:28Z</time>
      </trkpt>
      <trkpt lat="43.53384" lon="6.1413">
        <ele>354.86376953125</ele>
        <time>2013-06-15T11:49:32Z</time>
      </trkpt>
      <trkpt lat="43.53372" lon="6.14134">
        <ele>354.38317871094</ele>
        <time>2013-06-15T11:49:42Z</time>
      </trkpt>
      <trkpt lat="43.53358" lon="6.14141">
        <ele>353.421875</ele>
        <time>2013-06-15T11:49:54Z</time>
      </trkpt>
      <trkpt lat="43.53349" lon="6.1415">
        <ele>352.46057128906</ele>
        <time>2013-06-15T11:50:04Z</time>
      </trkpt>
      <trkpt lat="43.53348" lon="6.14151">
        <ele>351.97985839844</ele>
        <time>2013-06-15T11:50:05Z</time>
      </trkpt>
      <trkpt lat="43.53341" lon="6.14153">
        <ele>351.97985839844</ele>
        <time>2013-06-15T11:50:12Z</time>
      </trkpt>
      <trkpt lat="43.53342" lon="6.14174">
        <ele>350.53784179688</ele>
        <time>2013-06-15T11:50:23Z</time>
      </trkpt>
      <trkpt lat="43.53349" lon="6.14194">
        <ele>349.57653808594</ele>
        <time>2013-06-15T11:50:36Z</time>
      </trkpt>
      <trkpt lat="43.53356" lon="6.14214">
        <ele>348.615234375</ele>
        <time>2013-06-15T11:50:50Z</time>
      </trkpt>
      <trkpt lat="43.53361" lon="6.14226">
        <ele>348.13464355469</ele>
        <time>2013-06-15T11:50:58Z</time>
      </trkpt>
      <trkpt lat="43.53368" lon="6.14244">
        <ele>347.65393066406</ele>
        <time>2013-06-15T11:51:10Z</time>
      </trkpt>
      <trkpt lat="43.53373" lon="6.14263">
        <ele>346.69262695312</ele>
        <time>2013-06-15T11:51:23Z</time>
      </trkpt>
      <trkpt lat="43.53369" lon="6.14268">
        <ele>346.69262695312</ele>
        <time>2013-06-15T11:51:37Z</time>
      </trkpt>
      <trkpt lat="43.53371" lon="6.1427">
        <ele>346.21203613281</ele>
        <time>2013-06-15T11:51:55Z</time>
      </trkpt>
      <trkpt lat="43.53381" lon="6.14281">
        <ele>345.73132324219</ele>
        <time>2013-06-15T11:52:06Z</time>
      </trkpt>
      <trkpt lat="43.53385" lon="6.14286">
        <ele>345.73132324219</ele>
        <time>2013-06-15T11:52:11Z</time>
      </trkpt>
      <trkpt lat="43.53398" lon="6.143">
        <ele>344.77001953125</ele>
        <time>2013-06-15T11:52:25Z</time>
      </trkpt>
      <trkpt lat="43.53398" lon="6.14303">
        <ele>344.77001953125</ele>
        <time>2013-06-15T11:52:27Z</time>
      </trkpt>
      <trkpt lat="43.53397" lon="6.14303">
        <ele>343.80859375</ele>
        <time>2013-06-15T11:52:32Z</time>
      </trkpt>
      <trkpt lat="43.53392" lon="6.14294">
        <ele>342.84729003906</ele>
        <time>2013-06-15T11:52:40Z</time>
      </trkpt>
      <trkpt lat="43.53387" lon="6.14303">
        <ele>341.4052734375</ele>
        <time>2013-06-15T11:52:52Z</time>
      </trkpt>
      <trkpt lat="43.53385" lon="6.14308">
        <ele>340.44409179688</ele>
        <time>2013-06-15T11:52:56Z</time>
      </trkpt>
      <trkpt lat="43.53381" lon="6.14314">
        <ele>339.48266601562</ele>
        <time>2013-06-15T11:53:02Z</time>
      </trkpt>
      <trkpt lat="43.5338" lon="6.14317">
        <ele>338.521484375</ele>
        <time>2013-06-15T11:53:04Z</time>
      </trkpt>
      <trkpt lat="43.53379" lon="6.14321">
        <ele>338.521484375</ele>
        <time>2013-06-15T11:53:24Z</time>
      </trkpt>
      <trkpt lat="43.53376" lon="6.14326">
        <ele>337.56005859375</ele>
        <time>2013-06-15T11:53:30Z</time>
      </trkpt>
      <trkpt lat="43.53364" lon="6.14342">
        <ele>335.15673828125</ele>
        <time>2013-06-15T11:53:44Z</time>
      </trkpt>
      <trkpt lat="43.53354" lon="6.14356">
        <ele>333.71472167969</ele>
        <time>2013-06-15T11:53:56Z</time>
      </trkpt>
      <trkpt lat="43.53345" lon="6.14363">
        <ele>331.3115234375</ele>
        <time>2013-06-15T11:59:18Z</time>
      </trkpt>
      <trkpt lat="43.53338" lon="6.14354">
        <ele>331.79211425781</ele>
        <time>2013-06-15T11:59:26Z</time>
      </trkpt>
      <trkpt lat="43.53337" lon="6.14353">
        <ele>331.79211425781</ele>
        <time>2013-06-15T11:59:28Z</time>
      </trkpt>
      <trkpt lat="43.53328" lon="6.1434">
        <ele>333.23413085938</ele>
        <time>2013-06-15T11:59:40Z</time>
      </trkpt>
      <trkpt lat="43.53325" lon="6.14335">
        <ele>333.71472167969</ele>
        <time>2013-06-15T11:59:55Z</time>
      </trkpt>
      <trkpt lat="43.53313" lon="6.14328">
        <ele>333.71472167969</ele>
        <time>2013-06-15T12:00:15Z</time>
      </trkpt>
      <trkpt lat="43.53299" lon="6.14319">
        <ele>333.23413085938</ele>
        <time>2013-06-15T12:00:28Z</time>
      </trkpt>
      <trkpt lat="43.53287" lon="6.14309">
        <ele>332.75354003906</ele>
        <time>2013-06-15T12:00:43Z</time>
      </trkpt>
      <trkpt lat="43.53277" lon="6.14299">
        <ele>332.27282714844</ele>
        <time>2013-06-15T12:00:55Z</time>
      </trkpt>
      <trkpt lat="43.53271" lon="6.14293">
        <ele>332.27282714844</ele>
        <time>2013-06-15T12:01:04Z</time>
      </trkpt>
      <trkpt lat="43.53269" lon="6.14289">
        <ele>332.27282714844</ele>
        <time>2013-06-15T12:01:06Z</time>
      </trkpt>
      <trkpt lat="43.53251" lon="6.14272">
        <ele>332.75354003906</ele>
        <time>2013-06-15T12:01:23Z</time>
      </trkpt>
      <trkpt lat="43.53251" lon="6.1427">
        <ele>333.23413085938</ele>
        <time>2013-06-15T12:01:25Z</time>
      </trkpt>
      <trkpt lat="43.53244" lon="6.14264">
        <ele>332.27282714844</ele>
        <time>2013-06-15T12:01:31Z</time>
      </trkpt>
      <trkpt lat="43.5324" lon="6.1426">
        <ele>332.27282714844</ele>
        <time>2013-06-15T12:01:36Z</time>
      </trkpt>
      <trkpt lat="43.53228" lon="6.1424">
        <ele>330.35021972656</ele>
        <time>2013-06-15T12:01:51Z</time>
      </trkpt>
      <trkpt lat="43.53216" lon="6.14225">
        <ele>329.38891601562</ele>
        <time>2013-06-15T12:02:05Z</time>
      </trkpt>
      <trkpt lat="43.53212" lon="6.1422">
        <ele>329.38891601562</ele>
        <time>2013-06-15T12:02:11Z</time>
      </trkpt>
      <trkpt lat="43.53203" lon="6.14209">
        <ele>327.46618652344</ele>
        <time>2013-06-15T12:02:26Z</time>
      </trkpt>
      <trkpt lat="43.53191" lon="6.14203">
        <ele>326.5048828125</ele>
        <time>2013-06-15T12:02:41Z</time>
      </trkpt>
      <trkpt lat="43.53184" lon="6.14199">
        <ele>325.54357910156</ele>
        <time>2013-06-15T12:02:55Z</time>
      </trkpt>
      <trkpt lat="43.53183" lon="6.14198">
        <ele>325.06298828125</ele>
        <time>2013-06-15T12:02:57Z</time>
      </trkpt>
      <trkpt lat="43.53171" lon="6.14184">
        <ele>323.62097167969</ele>
        <time>2013-06-15T12:03:11Z</time>
      </trkpt>
      <trkpt lat="43.53159" lon="6.14173">
        <ele>322.65966796875</ele>
        <time>2013-06-15T12:03:22Z</time>
      </trkpt>
      <trkpt lat="43.53156" lon="6.14168">
        <ele>321.2177734375</ele>
        <time>2013-06-15T12:03:37Z</time>
      </trkpt>
      <trkpt lat="43.53146" lon="6.14153">
        <ele>319.77563476562</ele>
        <time>2013-06-15T12:03:54Z</time>
      </trkpt>
      <trkpt lat="43.53143" lon="6.1415">
        <ele>319.29504394531</ele>
        <time>2013-06-15T12:03:58Z</time>
      </trkpt>
      <trkpt lat="43.53138" lon="6.14143">
        <ele>319.29504394531</ele>
        <time>2013-06-15T12:04:02Z</time>
      </trkpt>
      <trkpt lat="43.5313" lon="6.14135">
        <ele>317.85302734375</ele>
        <time>2013-06-15T12:04:13Z</time>
      </trkpt>
      <trkpt lat="43.53124" lon="6.1413">
        <ele>316.41101074219</ele>
        <time>2013-06-15T12:04:30Z</time>
      </trkpt>
      <trkpt lat="43.53121" lon="6.14128">
        <ele>315.93041992188</ele>
        <time>2013-06-15T12:04:34Z</time>
      </trkpt>
      <trkpt lat="43.53117" lon="6.14122">
        <ele>314.48840332031</ele>
        <time>2013-06-15T12:04:40Z</time>
      </trkpt>
      <trkpt lat="43.53112" lon="6.14113">
        <ele>313.52722167969</ele>
        <time>2013-06-15T12:04:49Z</time>
      </trkpt>
      <trkpt lat="43.53105" lon="6.141">
        <ele>311.12377929688</ele>
        <time>2013-06-15T12:05:04Z</time>
      </trkpt>
      <trkpt lat="43.53078" lon="6.14099">
        <ele>307.75927734375</ele>
        <time>2013-06-15T12:05:21Z</time>
      </trkpt>
      <trkpt lat="43.53072" lon="6.14094">
        <ele>306.7978515625</ele>
        <time>2013-06-15T12:05:37Z</time>
      </trkpt>
      <trkpt lat="43.53064" lon="6.1409">
        <ele>304.87524414062</ele>
        <time>2013-06-15T12:06:00Z</time>
      </trkpt>
      <trkpt lat="43.53061" lon="6.14087">
        <ele>304.87524414062</ele>
        <time>2013-06-15T12:06:02Z</time>
      </trkpt>
      <trkpt lat="43.53058" lon="6.14081">
        <ele>303.91394042969</ele>
        <time>2013-06-15T12:06:08Z</time>
      </trkpt>
      <trkpt lat="43.5305" lon="6.14075">
        <ele>303.43322753906</ele>
        <time>2013-06-15T12:06:15Z</time>
      </trkpt>
      <trkpt lat="43.53039" lon="6.14063">
        <ele>302.95251464844</ele>
        <time>2013-06-15T12:06:32Z</time>
      </trkpt>
      <trkpt lat="43.53038" lon="6.14061">
        <ele>302.95251464844</ele>
        <time>2013-06-15T12:06:33Z</time>
      </trkpt>
      <trkpt lat="43.53031" lon="6.14048">
        <ele>302.47192382812</ele>
        <time>2013-06-15T12:06:43Z</time>
      </trkpt>
      <trkpt lat="43.53027" lon="6.1404">
        <ele>301.99133300781</ele>
        <time>2013-06-15T12:07:00Z</time>
      </trkpt>
      <trkpt lat="43.53025" lon="6.14039">
        <ele>301.51062011719</ele>
        <time>2013-06-15T12:07:45Z</time>
      </trkpt>
      <trkpt lat="43.5302" lon="6.14048">
        <ele>301.02990722656</ele>
        <time>2013-06-15T12:08:44Z</time>
      </trkpt>
      <trkpt lat="43.53012" lon="6.14063">
        <ele>300.06872558594</ele>
        <time>2013-06-15T12:09:13Z</time>
      </trkpt>
      <trkpt lat="43.53029" lon="6.14051">
        <ele>300.06872558594</ele>
        <time>2013-06-15T12:09:55Z</time>
      </trkpt>
      <trkpt lat="43.53034" lon="6.14048">
        <ele>300.06872558594</ele>
        <time>2013-06-15T12:10:28Z</time>
      </trkpt>
      <trkpt lat="43.5301" lon="6.14068">
        <ele>299.58801269531</ele>
        <time>2013-06-15T12:10:55Z</time>
      </trkpt>
      <trkpt lat="43.53005" lon="6.14076">
        <ele>298.62670898438</ele>
        <time>2013-06-15T12:11:02Z</time>
      </trkpt>
      <trkpt lat="43.52994" lon="6.14082">
        <ele>297.18469238281</ele>
        <time>2013-06-15T12:11:16Z</time>
      </trkpt>
      <trkpt lat="43.52986" lon="6.14086">
        <ele>295.26196289062</ele>
        <time>2013-06-15T12:11:26Z</time>
      </trkpt>
      <trkpt lat="43.52972" lon="6.14093">
        <ele>292.85876464844</ele>
        <time>2013-06-15T12:11:43Z</time>
      </trkpt>
      <trkpt lat="43.5297" lon="6.14097">
        <ele>292.37817382812</ele>
        <time>2013-06-15T12:11:48Z</time>
      </trkpt>
      <trkpt lat="43.52965" lon="6.14099">
        <ele>291.8974609375</ele>
        <time>2013-06-15T12:11:53Z</time>
      </trkpt>
      <trkpt lat="43.52962" lon="6.14101">
        <ele>291.8974609375</ele>
        <time>2013-06-15T12:11:56Z</time>
      </trkpt>
      <trkpt lat="43.52957" lon="6.14116">
        <ele>289.01354980469</ele>
        <time>2013-06-15T12:12:16Z</time>
      </trkpt>
      <trkpt lat="43.52959" lon="6.1412">
        <ele>289.494140625</ele>
        <time>2013-06-15T12:13:01Z</time>
      </trkpt>
      <trkpt lat="43.52951" lon="6.14137">
        <ele>287.0908203125</ele>
        <time>2013-06-15T12:13:18Z</time>
      </trkpt>
      <trkpt lat="43.52943" lon="6.14141">
        <ele>286.12951660156</ele>
        <time>2013-06-15T12:13:32Z</time>
      </trkpt>
      <trkpt lat="43.52936" lon="6.14153">
        <ele>283.24560546875</ele>
        <time>2013-06-15T12:13:57Z</time>
      </trkpt>
      <trkpt lat="43.52933" lon="6.14161">
        <ele>282.76501464844</ele>
        <time>2013-06-15T12:14:25Z</time>
      </trkpt>
      <trkpt lat="43.52924" lon="6.14189">
        <ele>281.80358886719</ele>
        <time>2013-06-15T12:16:15Z</time>
      </trkpt>
      <trkpt lat="43.52908" lon="6.14204">
        <ele>278.91967773438</ele>
        <time>2013-06-15T12:16:42Z</time>
      </trkpt>
      <trkpt lat="43.52908" lon="6.142">
        <ele>278.91967773438</ele>
        <time>2013-06-15T12:16:44Z</time>
      </trkpt>
      <trkpt lat="43.52897" lon="6.14215">
        <ele>276.51635742188</ele>
        <time>2013-06-15T12:17:01Z</time>
      </trkpt>
      <trkpt lat="43.52896" lon="6.14222">
        <ele>275.55505371094</ele>
        <time>2013-06-15T12:17:06Z</time>
      </trkpt>
      <trkpt lat="43.52887" lon="6.14243">
        <ele>273.15185546875</ele>
        <time>2013-06-15T12:17:24Z</time>
      </trkpt>
      <trkpt lat="43.52877" lon="6.14249">
        <ele>272.67114257812</ele>
        <time>2013-06-15T12:17:51Z</time>
      </trkpt>
      <trkpt lat="43.5288" lon="6.14257">
        <ele>273.63244628906</ele>
        <time>2013-06-15T12:18:21Z</time>
      </trkpt>
      <trkpt lat="43.5289" lon="6.14261">
        <ele>274.59375</ele>
        <time>2013-06-15T12:18:36Z</time>
      </trkpt>
      <trkpt lat="43.52909" lon="6.14261">
        <ele>276.03564453125</ele>
        <time>2013-06-15T12:18:59Z</time>
      </trkpt>
      <trkpt lat="43.52924" lon="6.14267">
        <ele>275.07446289062</ele>
        <time>2013-06-15T12:19:16Z</time>
      </trkpt>
      <trkpt lat="43.52927" lon="6.14267">
        <ele>275.07446289062</ele>
        <time>2013-06-15T12:19:21Z</time>
      </trkpt>
      <trkpt lat="43.5293" lon="6.14266">
        <ele>273.63244628906</ele>
        <time>2013-06-15T12:19:51Z</time>
      </trkpt>
      <trkpt lat="43.52935" lon="6.14273">
        <ele>275.07446289062</ele>
        <time>2013-06-15T12:20:13Z</time>
      </trkpt>
      <trkpt lat="43.52955" lon="6.14295">
        <ele>277.47766113281</ele>
        <time>2013-06-15T12:21:58Z</time>
      </trkpt>
      <trkpt lat="43.52961" lon="6.14307">
        <ele>277.47766113281</ele>
        <time>2013-06-15T12:22:15Z</time>
      </trkpt>
      <trkpt lat="43.52959" lon="6.14299">
        <ele>270.74841308594</ele>
        <time>2013-06-15T12:23:53Z</time>
      </trkpt>
      <trkpt lat="43.52959" lon="6.14298">
        <ele>279.40026855469</ele>
        <time>2013-06-15T12:23:54Z</time>
      </trkpt>
      <trkpt lat="43.52959" lon="6.14298">
        <ele>277.47766113281</ele>
        <time>2013-06-15T12:23:55Z</time>
      </trkpt>
      <trkpt lat="43.52944" lon="6.14293">
        <ele>274.11303710938</ele>
        <time>2013-06-15T12:24:33Z</time>
      </trkpt>
      <trkpt lat="43.52935" lon="6.14274">
        <ele>273.15185546875</ele>
        <time>2013-06-15T12:24:47Z</time>
      </trkpt>
      <trkpt lat="43.52925" lon="6.14267">
        <ele>272.1904296875</ele>
        <time>2013-06-15T12:25:09Z</time>
      </trkpt>
      <trkpt lat="43.5292" lon="6.14268">
        <ele>275.55505371094</ele>
        <time>2013-06-15T12:25:36Z</time>
      </trkpt>
      <trkpt lat="43.52906" lon="6.14265">
        <ele>273.63244628906</ele>
        <time>2013-06-15T12:26:02Z</time>
      </trkpt>
      <trkpt lat="43.52885" lon="6.1426">
        <ele>272.1904296875</ele>
        <time>2013-06-15T12:26:21Z</time>
      </trkpt>
      <trkpt lat="43.52872" lon="6.14263">
        <ele>271.22912597656</ele>
        <time>2013-06-15T12:26:41Z</time>
      </trkpt>
      <trkpt lat="43.52871" lon="6.14272">
        <ele>271.70971679688</ele>
        <time>2013-06-15T12:27:00Z</time>
      </trkpt>
      <trkpt lat="43.52871" lon="6.14266">
        <ele>270.74841308594</ele>
        <time>2013-06-15T12:27:12Z</time>
      </trkpt>
      <trkpt lat="43.52869" lon="6.14254">
        <ele>270.26770019531</ele>
        <time>2013-06-15T12:27:26Z</time>
      </trkpt>
      <trkpt lat="43.5288" lon="6.14253">
        <ele>270.74841308594</ele>
        <time>2013-06-15T12:27:47Z</time>
      </trkpt>
      <trkpt lat="43.52879" lon="6.14246">
        <ele>270.74841308594</ele>
        <time>2013-06-15T12:28:12Z</time>
      </trkpt>
      <trkpt lat="43.52894" lon="6.14229">
        <ele>273.63244628906</ele>
        <time>2013-06-15T12:28:42Z</time>
      </trkpt>
      <trkpt lat="43.52899" lon="6.14212">
        <ele>274.59375</ele>
        <time>2013-06-15T12:28:59Z</time>
      </trkpt>
      <trkpt lat="43.52908" lon="6.14198">
        <ele>276.51635742188</ele>
        <time>2013-06-15T12:29:19Z</time>
      </trkpt>
      <trkpt lat="43.52917" lon="6.14191">
        <ele>277.47766113281</ele>
        <time>2013-06-15T12:29:31Z</time>
      </trkpt>
      <trkpt lat="43.52925" lon="6.14176">
        <ele>279.40026855469</ele>
        <time>2013-06-15T12:29:47Z</time>
      </trkpt>
      <trkpt lat="43.52933" lon="6.14157">
        <ele>280.84240722656</ele>
        <time>2013-06-15T12:30:02Z</time>
      </trkpt>
      <trkpt lat="43.5294" lon="6.14144">
        <ele>282.28430175781</ele>
        <time>2013-06-15T12:30:20Z</time>
      </trkpt>
      <trkpt lat="43.52939" lon="6.14141">
        <ele>282.28430175781</ele>
        <time>2013-06-15T12:30:22Z</time>
      </trkpt>
      <trkpt lat="43.52928" lon="6.14117">
        <ele>282.76501464844</ele>
        <time>2013-06-15T12:30:38Z</time>
      </trkpt>
      <trkpt lat="43.5292" lon="6.14105">
        <ele>282.76501464844</ele>
        <time>2013-06-15T12:30:52Z</time>
      </trkpt>
      <trkpt lat="43.52917" lon="6.14092">
        <ele>283.24560546875</ele>
        <time>2013-06-15T12:31:14Z</time>
      </trkpt>
      <trkpt lat="43.52916" lon="6.14085">
        <ele>283.72619628906</ele>
        <time>2013-06-15T12:31:22Z</time>
      </trkpt>
      <trkpt lat="43.52914" lon="6.14068">
        <ele>284.20690917969</ele>
        <time>2013-06-15T12:31:35Z</time>
      </trkpt>
      <trkpt lat="43.52912" lon="6.14063">
        <ele>284.68762207031</ele>
        <time>2013-06-15T12:31:56Z</time>
      </trkpt>
      <trkpt lat="43.52912" lon="6.14061">
        <ele>284.68762207031</ele>
        <time>2013-06-15T12:31:58Z</time>
      </trkpt>
      <trkpt lat="43.52903" lon="6.14045">
        <ele>285.64880371094</ele>
        <time>2013-06-15T12:32:14Z</time>
      </trkpt>
      <trkpt lat="43.52896" lon="6.14035">
        <ele>287.0908203125</ele>
        <time>2013-06-15T12:32:28Z</time>
      </trkpt>
      <trkpt lat="43.52896" lon="6.14032">
        <ele>287.0908203125</ele>
        <time>2013-06-15T12:32:30Z</time>
      </trkpt>
      <trkpt lat="43.52893" lon="6.14021">
        <ele>287.57141113281</ele>
        <time>2013-06-15T12:32:37Z</time>
      </trkpt>
      <trkpt lat="43.52891" lon="6.14018">
        <ele>288.05224609375</ele>
        <time>2013-06-15T12:32:40Z</time>
      </trkpt>
      <trkpt lat="43.52889" lon="6.13999">
        <ele>289.97485351562</ele>
        <time>2013-06-15T12:32:55Z</time>
      </trkpt>
      <trkpt lat="43.52889" lon="6.13988">
        <ele>292.37817382812</ele>
        <time>2013-06-15T12:33:11Z</time>
      </trkpt>
      <trkpt lat="43.52881" lon="6.13982">
        <ele>292.85876464844</ele>
        <time>2013-06-15T12:33:26Z</time>
      </trkpt>
      <trkpt lat="43.52874" lon="6.13981">
        <ele>292.85876464844</ele>
        <time>2013-06-15T12:33:40Z</time>
      </trkpt>
      <trkpt lat="43.52869" lon="6.13981">
        <ele>292.85876464844</ele>
        <time>2013-06-15T12:33:55Z</time>
      </trkpt>
      <trkpt lat="43.52857" lon="6.13986">
        <ele>292.85876464844</ele>
        <time>2013-06-15T12:34:12Z</time>
      </trkpt>
      <trkpt lat="43.52848" lon="6.14001">
        <ele>292.85876464844</ele>
        <time>2013-06-15T12:34:27Z</time>
      </trkpt>
      <trkpt lat="43.5284" lon="6.14016">
        <ele>293.82006835938</ele>
        <time>2013-06-15T12:34:45Z</time>
      </trkpt>
      <trkpt lat="43.52837" lon="6.14022">
        <ele>294.30078125</ele>
        <time>2013-06-15T12:34:51Z</time>
      </trkpt>
      <trkpt lat="43.52833" lon="6.14041">
        <ele>294.30078125</ele>
        <time>2013-06-15T12:35:08Z</time>
      </trkpt>
      <trkpt lat="43.52834" lon="6.1405">
        <ele>294.78137207031</ele>
        <time>2013-06-15T12:35:22Z</time>
      </trkpt>
      <trkpt lat="43.52835" lon="6.14059">
        <ele>294.78137207031</ele>
        <time>2013-06-15T12:35:29Z</time>
      </trkpt>
      <trkpt lat="43.52834" lon="6.1407">
        <ele>294.30078125</ele>
        <time>2013-06-15T12:35:41Z</time>
      </trkpt>
      <trkpt lat="43.52827" lon="6.14073">
        <ele>293.82006835938</ele>
        <time>2013-06-15T12:35:55Z</time>
      </trkpt>
      <trkpt lat="43.52826" lon="6.14075">
        <ele>293.82006835938</ele>
        <time>2013-06-15T12:35:59Z</time>
      </trkpt>
      <trkpt lat="43.52815" lon="6.14074">
        <ele>292.37817382812</ele>
        <time>2013-06-15T12:36:13Z</time>
      </trkpt>
      <trkpt lat="43.52813" lon="6.1407">
        <ele>292.85876464844</ele>
        <time>2013-06-15T12:36:20Z</time>
      </trkpt>
      <trkpt lat="43.52814" lon="6.14068">
        <ele>292.37817382812</ele>
        <time>2013-06-15T12:36:22Z</time>
      </trkpt>
      <trkpt lat="43.52812" lon="6.14062">
        <ele>292.37817382812</ele>
        <time>2013-06-15T12:36:28Z</time>
      </trkpt>
      <trkpt lat="43.52805" lon="6.14056">
        <ele>291.8974609375</ele>
        <time>2013-06-15T12:36:47Z</time>
      </trkpt>
      <trkpt lat="43.52795" lon="6.14054">
        <ele>290.93615722656</ele>
        <time>2013-06-15T12:37:01Z</time>
      </trkpt>
      <trkpt lat="43.52794" lon="6.14054">
        <ele>290.45556640625</ele>
        <time>2013-06-15T12:37:03Z</time>
      </trkpt>
      <trkpt lat="43.52791" lon="6.14058">
        <ele>289.494140625</ele>
        <time>2013-06-15T12:37:10Z</time>
      </trkpt>
      <trkpt lat="43.52776" lon="6.14061">
        <ele>288.05224609375</ele>
        <time>2013-06-15T12:37:24Z</time>
      </trkpt>
      <trkpt lat="43.52767" lon="6.1406">
        <ele>287.57141113281</ele>
        <time>2013-06-15T12:37:33Z</time>
      </trkpt>
      <trkpt lat="43.52765" lon="6.14067">
        <ele>287.0908203125</ele>
        <time>2013-06-15T12:37:40Z</time>
      </trkpt>
      <trkpt lat="43.52772" lon="6.14077">
        <ele>285.64880371094</ele>
        <time>2013-06-15T12:37:52Z</time>
      </trkpt>
      <trkpt lat="43.52781" lon="6.14086">
        <ele>285.16821289062</ele>
        <time>2013-06-15T12:38:06Z</time>
      </trkpt>
      <trkpt lat="43.5278" lon="6.14091">
        <ele>284.68762207031</ele>
        <time>2013-06-15T12:38:11Z</time>
      </trkpt>
      <trkpt lat="43.52776" lon="6.14097">
        <ele>283.72619628906</ele>
        <time>2013-06-15T12:38:19Z</time>
      </trkpt>
      <trkpt lat="43.52774" lon="6.14099">
        <ele>283.72619628906</ele>
        <time>2013-06-15T12:38:22Z</time>
      </trkpt>
      <trkpt lat="43.52768" lon="6.14098">
        <ele>283.72619628906</ele>
        <time>2013-06-15T12:38:30Z</time>
      </trkpt>
      <trkpt lat="43.52755" lon="6.14108">
        <ele>282.76501464844</ele>
        <time>2013-06-15T12:38:49Z</time>
      </trkpt>
      <trkpt lat="43.52752" lon="6.14119">
        <ele>281.32299804688</ele>
        <time>2013-06-15T12:39:05Z</time>
      </trkpt>
      <trkpt lat="43.52751" lon="6.14121">
        <ele>281.32299804688</ele>
        <time>2013-06-15T12:39:07Z</time>
      </trkpt>
      <trkpt lat="43.52749" lon="6.14133">
        <ele>280.36169433594</ele>
        <time>2013-06-15T12:39:18Z</time>
      </trkpt>
      <trkpt lat="43.52745" lon="6.14144">
        <ele>280.84240722656</ele>
        <time>2013-06-15T12:39:33Z</time>
      </trkpt>
      <trkpt lat="43.52743" lon="6.14161">
        <ele>278.91967773438</ele>
        <time>2013-06-15T12:39:50Z</time>
      </trkpt>
      <trkpt lat="43.52739" lon="6.14178">
        <ele>278.91967773438</ele>
        <time>2013-06-15T12:40:03Z</time>
      </trkpt>
      <trkpt lat="43.52738" lon="6.14191">
        <ele>277.95825195312</ele>
        <time>2013-06-15T12:40:16Z</time>
      </trkpt>
      <trkpt lat="43.5273" lon="6.14205">
        <ele>277.47766113281</ele>
        <time>2013-06-15T12:40:28Z</time>
      </trkpt>
      <trkpt lat="43.52729" lon="6.14208">
        <ele>277.47766113281</ele>
        <time>2013-06-15T12:40:31Z</time>
      </trkpt>
      <trkpt lat="43.52727" lon="6.14213">
        <ele>277.47766113281</ele>
        <time>2013-06-15T12:40:34Z</time>
      </trkpt>
      <trkpt lat="43.52725" lon="6.14229">
        <ele>276.51635742188</ele>
        <time>2013-06-15T12:40:51Z</time>
      </trkpt>
      <trkpt lat="43.52717" lon="6.14245">
        <ele>276.03564453125</ele>
        <time>2013-06-15T12:41:07Z</time>
      </trkpt>
      <trkpt lat="43.52718" lon="6.14257">
        <ele>273.15185546875</ele>
        <time>2013-06-15T12:41:22Z</time>
      </trkpt>
      <trkpt lat="43.52719" lon="6.1427">
        <ele>273.15185546875</ele>
        <time>2013-06-15T12:41:37Z</time>
      </trkpt>
      <trkpt lat="43.52718" lon="6.1427">
        <ele>273.15185546875</ele>
        <time>2013-06-15T12:41:50Z</time>
      </trkpt>
      <trkpt lat="43.52716" lon="6.14279">
        <ele>272.67114257812</ele>
        <time>2013-06-15T12:42:01Z</time>
      </trkpt>
      <trkpt lat="43.52712" lon="6.14286">
        <ele>271.22912597656</ele>
        <time>2013-06-15T12:42:18Z</time>
      </trkpt>
      <trkpt lat="43.52708" lon="6.14298">
        <ele>270.26770019531</ele>
        <time>2013-06-15T12:42:34Z</time>
      </trkpt>
      <trkpt lat="43.52703" lon="6.14317">
        <ele>267.86450195312</ele>
        <time>2013-06-15T12:42:51Z</time>
      </trkpt>
      <trkpt lat="43.52698" lon="6.14331">
        <ele>266.42248535156</ele>
        <time>2013-06-15T12:43:06Z</time>
      </trkpt>
      <trkpt lat="43.52685" lon="6.14344">
        <ele>266.90319824219</ele>
        <time>2013-06-15T12:43:23Z</time>
      </trkpt>
      <trkpt lat="43.52675" lon="6.1435">
        <ele>264.98059082031</ele>
        <time>2013-06-15T12:43:40Z</time>
      </trkpt>
      <trkpt lat="43.5266" lon="6.14373">
        <ele>264.49987792969</ele>
        <time>2013-06-15T12:43:54Z</time>
      </trkpt>
      <trkpt lat="43.52647" lon="6.14383">
        <ele>263.53857421875</ele>
        <time>2013-06-15T12:44:09Z</time>
      </trkpt>
      <trkpt lat="43.52634" lon="6.14394">
        <ele>263.53857421875</ele>
        <time>2013-06-15T12:44:24Z</time>
      </trkpt>
      <trkpt lat="43.52628" lon="6.14399">
        <ele>263.05786132812</ele>
        <time>2013-06-15T12:44:29Z</time>
      </trkpt>
      <trkpt lat="43.52625" lon="6.14402">
        <ele>263.05786132812</ele>
        <time>2013-06-15T12:44:31Z</time>
      </trkpt>
      <trkpt lat="43.52623" lon="6.14405">
        <ele>263.53857421875</ele>
        <time>2013-06-15T12:44:35Z</time>
      </trkpt>
      <trkpt lat="43.52615" lon="6.14419">
        <ele>264.01928710938</ele>
        <time>2013-06-15T12:44:51Z</time>
      </trkpt>
      <trkpt lat="43.52608" lon="6.14441">
        <ele>265.94189453125</ele>
        <time>2013-06-15T12:45:08Z</time>
      </trkpt>
      <trkpt lat="43.52605" lon="6.14461">
        <ele>266.90319824219</ele>
        <time>2013-06-15T12:45:22Z</time>
      </trkpt>
      <trkpt lat="43.52605" lon="6.14463">
        <ele>265.94189453125</ele>
        <time>2013-06-15T12:45:24Z</time>
      </trkpt>
      <trkpt lat="43.52599" lon="6.1448">
        <ele>266.42248535156</ele>
        <time>2013-06-15T12:45:38Z</time>
      </trkpt>
      <trkpt lat="43.52595" lon="6.14494">
        <ele>266.42248535156</ele>
        <time>2013-06-15T12:46:25Z</time>
      </trkpt>
      <trkpt lat="43.52596" lon="6.14493">
        <ele>265.94189453125</ele>
        <time>2013-06-15T12:46:27Z</time>
      </trkpt>
      <trkpt lat="43.52597" lon="6.14498">
        <ele>265.46130371094</ele>
        <time>2013-06-15T12:46:32Z</time>
      </trkpt>
      <trkpt lat="43.52593" lon="6.14515">
        <ele>264.01928710938</ele>
        <time>2013-06-15T12:46:47Z</time>
      </trkpt>
      <trkpt lat="43.52594" lon="6.14519">
        <ele>264.01928710938</ele>
        <time>2013-06-15T12:46:50Z</time>
      </trkpt>
      <trkpt lat="43.52593" lon="6.14539">
        <ele>262.09655761719</ele>
        <time>2013-06-15T12:47:05Z</time>
      </trkpt>
      <trkpt lat="43.52592" lon="6.1456">
        <ele>260.65454101562</ele>
        <time>2013-06-15T12:47:21Z</time>
      </trkpt>
      <trkpt lat="43.52588" lon="6.14573">
        <ele>259.693359375</ele>
        <time>2013-06-15T12:47:31Z</time>
      </trkpt>
      <trkpt lat="43.52585" lon="6.14578">
        <ele>260.17395019531</ele>
        <time>2013-06-15T12:47:35Z</time>
      </trkpt>
      <trkpt lat="43.5258" lon="6.14588">
        <ele>259.693359375</ele>
        <time>2013-06-15T12:47:48Z</time>
      </trkpt>
      <trkpt lat="43.52575" lon="6.14604">
        <ele>258.73193359375</ele>
        <time>2013-06-15T12:48:03Z</time>
      </trkpt>
      <trkpt lat="43.52571" lon="6.14615">
        <ele>258.73193359375</ele>
        <time>2013-06-15T12:48:11Z</time>
      </trkpt>
      <trkpt lat="43.52567" lon="6.1461">
        <ele>260.17395019531</ele>
        <time>2013-06-15T12:48:22Z</time>
      </trkpt>
      <trkpt lat="43.52564" lon="6.14598">
        <ele>261.61596679688</ele>
        <time>2013-06-15T12:48:35Z</time>
      </trkpt>
      <trkpt lat="43.52551" lon="6.14595">
        <ele>263.05786132812</ele>
        <time>2013-06-15T12:48:48Z</time>
      </trkpt>
      <trkpt lat="43.52538" lon="6.14601">
        <ele>264.01928710938</ele>
        <time>2013-06-15T12:49:03Z</time>
      </trkpt>
      <trkpt lat="43.52537" lon="6.14602">
        <ele>264.01928710938</ele>
        <time>2013-06-15T12:49:04Z</time>
      </trkpt>
      <trkpt lat="43.52522" lon="6.14606">
        <ele>264.98059082031</ele>
        <time>2013-06-15T12:49:19Z</time>
      </trkpt>
      <trkpt lat="43.52508" lon="6.14611">
        <ele>265.46130371094</ele>
        <time>2013-06-15T12:49:35Z</time>
      </trkpt>
      <trkpt lat="43.52505" lon="6.14609">
        <ele>265.94189453125</ele>
        <time>2013-06-15T12:49:39Z</time>
      </trkpt>
      <trkpt lat="43.52488" lon="6.14612">
        <ele>266.90319824219</ele>
        <time>2013-06-15T12:49:55Z</time>
      </trkpt>
      <trkpt lat="43.52483" lon="6.1462">
        <ele>266.90319824219</ele>
        <time>2013-06-15T12:50:11Z</time>
      </trkpt>
      <trkpt lat="43.52474" lon="6.1462">
        <ele>267.38391113281</ele>
        <time>2013-06-15T12:50:37Z</time>
      </trkpt>
      <trkpt lat="43.52468" lon="6.1462">
        <ele>267.86450195312</ele>
        <time>2013-06-15T12:50:41Z</time>
      </trkpt>
      <trkpt lat="43.52459" lon="6.14621">
        <ele>268.34509277344</ele>
        <time>2013-06-15T12:50:49Z</time>
      </trkpt>
      <trkpt lat="43.52448" lon="6.14628">
        <ele>269.30651855469</ele>
        <time>2013-06-15T12:51:03Z</time>
      </trkpt>
      <trkpt lat="43.52435" lon="6.14634">
        <ele>270.26770019531</ele>
        <time>2013-06-15T12:51:16Z</time>
      </trkpt>
      <trkpt lat="43.52424" lon="6.14637">
        <ele>271.70971679688</ele>
        <time>2013-06-15T12:51:28Z</time>
      </trkpt>
      <trkpt lat="43.5242" lon="6.14638">
        <ele>271.70971679688</ele>
        <time>2013-06-15T12:51:31Z</time>
      </trkpt>
      <trkpt lat="43.52407" lon="6.14643">
        <ele>273.15185546875</ele>
        <time>2013-06-15T12:51:45Z</time>
      </trkpt>
      <trkpt lat="43.52395" lon="6.14654">
        <ele>274.11303710938</ele>
        <time>2013-06-15T12:51:57Z</time>
      </trkpt>
      <trkpt lat="43.52389" lon="6.1466">
        <ele>274.11303710938</ele>
        <time>2013-06-15T12:52:05Z</time>
      </trkpt>
      <trkpt lat="43.52388" lon="6.14663">
        <ele>274.11303710938</ele>
        <time>2013-06-15T12:52:07Z</time>
      </trkpt>
      <trkpt lat="43.52384" lon="6.14667">
        <ele>274.11303710938</ele>
        <time>2013-06-15T12:52:10Z</time>
      </trkpt>
      <trkpt lat="43.52375" lon="6.14678">
        <ele>275.07446289062</ele>
        <time>2013-06-15T12:52:23Z</time>
      </trkpt>
      <trkpt lat="43.52363" lon="6.14678">
        <ele>275.07446289062</ele>
        <time>2013-06-15T12:52:38Z</time>
      </trkpt>
      <trkpt lat="43.52358" lon="6.14682">
        <ele>275.55505371094</ele>
        <time>2013-06-15T12:53:34Z</time>
      </trkpt>
      <trkpt lat="43.52346" lon="6.14686">
        <ele>277.47766113281</ele>
        <time>2013-06-15T12:53:48Z</time>
      </trkpt>
      <trkpt lat="43.52331" lon="6.14691">
        <ele>279.40026855469</ele>
        <time>2013-06-15T12:54:06Z</time>
      </trkpt>
      <trkpt lat="43.52317" lon="6.14699">
        <ele>281.80358886719</ele>
        <time>2013-06-15T12:54:25Z</time>
      </trkpt>
      <trkpt lat="43.52306" lon="6.14702">
        <ele>283.24560546875</ele>
        <time>2013-06-15T12:54:46Z</time>
      </trkpt>
      <trkpt lat="43.52299" lon="6.14703">
        <ele>284.20690917969</ele>
        <time>2013-06-15T12:55:15Z</time>
      </trkpt>
      <trkpt lat="43.52286" lon="6.1471">
        <ele>286.61022949219</ele>
        <time>2013-06-15T12:55:33Z</time>
      </trkpt>
      <trkpt lat="43.52271" lon="6.14715">
        <ele>289.01354980469</ele>
        <time>2013-06-15T12:55:59Z</time>
      </trkpt>
      <trkpt lat="43.52258" lon="6.14722">
        <ele>290.93615722656</ele>
        <time>2013-06-15T12:56:17Z</time>
      </trkpt>
      <trkpt lat="43.52247" lon="6.14719">
        <ele>292.37817382812</ele>
        <time>2013-06-15T12:56:37Z</time>
      </trkpt>
      <trkpt lat="43.52234" lon="6.14716">
        <ele>293.82006835938</ele>
        <time>2013-06-15T12:56:56Z</time>
      </trkpt>
      <trkpt lat="43.52219" lon="6.14712">
        <ele>294.78137207031</ele>
        <time>2013-06-15T12:57:11Z</time>
      </trkpt>
      <trkpt lat="43.52208" lon="6.14709">
        <ele>295.74267578125</ele>
        <time>2013-06-15T12:57:26Z</time>
      </trkpt>
      <trkpt lat="43.52201" lon="6.14708">
        <ele>297.18469238281</ele>
        <time>2013-06-15T12:57:38Z</time>
      </trkpt>
      <trkpt lat="43.52188" lon="6.14712">
        <ele>298.62670898438</ele>
        <time>2013-06-15T12:57:57Z</time>
      </trkpt>
      <trkpt lat="43.52173" lon="6.14719">
        <ele>300.06872558594</ele>
        <time>2013-06-15T12:58:16Z</time>
      </trkpt>
      <trkpt lat="43.52159" lon="6.14725">
        <ele>301.99133300781</ele>
        <time>2013-06-15T12:58:35Z</time>
      </trkpt>
      <trkpt lat="43.52146" lon="6.14728">
        <ele>303.91394042969</ele>
        <time>2013-06-15T12:58:53Z</time>
      </trkpt>
      <trkpt lat="43.52134" lon="6.14733">
        <ele>305.83666992188</ele>
        <time>2013-06-15T12:59:13Z</time>
      </trkpt>
      <trkpt lat="43.52122" lon="6.14739">
        <ele>307.75927734375</ele>
        <time>2013-06-15T12:59:31Z</time>
      </trkpt>
      <trkpt lat="43.52112" lon="6.1474">
        <ele>309.68188476562</ele>
        <time>2013-06-15T12:59:48Z</time>
      </trkpt>
      <trkpt lat="43.52101" lon="6.14743">
        <ele>311.12377929688</ele>
        <time>2013-06-15T13:00:04Z</time>
      </trkpt>
      <trkpt lat="43.52087" lon="6.14747">
        <ele>314.0078125</ele>
        <time>2013-06-15T13:05:07Z</time>
      </trkpt>
      <trkpt lat="43.52072" lon="6.14746">
        <ele>316.89172363281</ele>
        <time>2013-06-15T13:05:29Z</time>
      </trkpt>
      <trkpt lat="43.52059" lon="6.14747">
        <ele>318.33361816406</ele>
        <time>2013-06-15T13:05:46Z</time>
      </trkpt>
      <trkpt lat="43.52055" lon="6.14749">
        <ele>326.02416992188</ele>
        <time>2013-06-15T13:06:37Z</time>
      </trkpt>
      <trkpt lat="43.52055" lon="6.14749">
        <ele>320.25634765625</ele>
        <time>2013-06-15T13:06:38Z</time>
      </trkpt>
      <trkpt lat="43.52055" lon="6.14749">
        <ele>318.81433105469</ele>
        <time>2013-06-15T13:06:40Z</time>
      </trkpt>
      <trkpt lat="43.52038" lon="6.14746">
        <ele>321.2177734375</ele>
        <time>2013-06-15T13:08:34Z</time>
      </trkpt>
      <trkpt lat="43.52035" lon="6.14741">
        <ele>322.17895507812</ele>
        <time>2013-06-15T13:08:39Z</time>
      </trkpt>
      <trkpt lat="43.52035" lon="6.14731">
        <ele>323.14038085938</ele>
        <time>2013-06-15T13:08:55Z</time>
      </trkpt>
      <trkpt lat="43.52039" lon="6.14732">
        <ele>323.14038085938</ele>
        <time>2013-06-15T13:09:04Z</time>
      </trkpt>
      <trkpt lat="43.52045" lon="6.1473">
        <ele>323.14038085938</ele>
        <time>2013-06-15T13:09:10Z</time>
      </trkpt>
      <trkpt lat="43.52047" lon="6.14732">
        <ele>322.65966796875</ele>
        <time>2013-06-15T13:09:24Z</time>
      </trkpt>
      <trkpt lat="43.52056" lon="6.1473">
        <ele>323.62097167969</ele>
        <time>2013-06-15T13:09:39Z</time>
      </trkpt>
      <trkpt lat="43.52067" lon="6.14725">
        <ele>324.1015625</ele>
        <time>2013-06-15T13:09:56Z</time>
      </trkpt>
      <trkpt lat="43.52079" lon="6.14713">
        <ele>324.1015625</ele>
        <time>2013-06-15T13:10:10Z</time>
      </trkpt>
      <trkpt lat="43.52094" lon="6.14699">
        <ele>324.58227539062</ele>
        <time>2013-06-15T13:10:26Z</time>
      </trkpt>
      <trkpt lat="43.52106" lon="6.14689">
        <ele>324.58227539062</ele>
        <time>2013-06-15T13:10:41Z</time>
      </trkpt>
      <trkpt lat="43.52117" lon="6.14674">
        <ele>324.58227539062</ele>
        <time>2013-06-15T13:13:50Z</time>
      </trkpt>
      <trkpt lat="43.52132" lon="6.14664">
        <ele>324.58227539062</ele>
        <time>2013-06-15T13:14:42Z</time>
      </trkpt>
      <trkpt lat="43.52142" lon="6.14645">
        <ele>324.58227539062</ele>
        <time>2013-06-15T13:15:06Z</time>
      </trkpt>
      <trkpt lat="43.52152" lon="6.14643">
        <ele>326.02416992188</ele>
        <time>2013-06-15T13:15:23Z</time>
      </trkpt>
      <trkpt lat="43.5215" lon="6.14636">
        <ele>327.94677734375</ele>
        <time>2013-06-15T13:15:42Z</time>
      </trkpt>
      <trkpt lat="43.52141" lon="6.14623">
        <ele>329.86950683594</ele>
        <time>2013-06-15T13:16:03Z</time>
      </trkpt>
      <trkpt lat="43.52134" lon="6.14625">
        <ele>330.35021972656</ele>
        <time>2013-06-15T13:16:11Z</time>
      </trkpt>
      <trkpt lat="43.52118" lon="6.14632">
        <ele>331.3115234375</ele>
        <time>2013-06-15T13:16:26Z</time>
      </trkpt>
      <trkpt lat="43.52106" lon="6.14632">
        <ele>332.75354003906</ele>
        <time>2013-06-15T13:16:40Z</time>
      </trkpt>
      <trkpt lat="43.52093" lon="6.14635">
        <ele>333.23413085938</ele>
        <time>2013-06-15T13:16:55Z</time>
      </trkpt>
      <trkpt lat="43.52092" lon="6.14635">
        <ele>333.23413085938</ele>
        <time>2013-06-15T13:16:56Z</time>
      </trkpt>
      <trkpt lat="43.52079" lon="6.14647">
        <ele>333.23413085938</ele>
        <time>2013-06-15T13:17:10Z</time>
      </trkpt>
      <trkpt lat="43.52076" lon="6.14649">
        <ele>333.23413085938</ele>
        <time>2013-06-15T13:17:12Z</time>
      </trkpt>
      <trkpt lat="43.52074" lon="6.14649">
        <ele>333.23413085938</ele>
        <time>2013-06-15T13:17:14Z</time>
      </trkpt>
      <trkpt lat="43.5206" lon="6.14654">
        <ele>333.23413085938</ele>
        <time>2013-06-15T13:17:30Z</time>
      </trkpt>
      <trkpt lat="43.52054" lon="6.14661">
        <ele>333.71472167969</ele>
        <time>2013-06-15T13:17:46Z</time>
      </trkpt>
      <trkpt lat="43.52057" lon="6.14671">
        <ele>333.23413085938</ele>
        <time>2013-06-15T13:17:57Z</time>
      </trkpt>
      <trkpt lat="43.52057" lon="6.14689">
        <ele>332.27282714844</ele>
        <time>2013-06-15T13:18:15Z</time>
      </trkpt>
      <trkpt lat="43.52056" lon="6.14697">
        <ele>330.83093261719</ele>
        <time>2013-06-15T13:18:29Z</time>
      </trkpt>
      <trkpt lat="43.52046" lon="6.14701">
        <ele>330.83093261719</ele>
        <time>2013-06-15T13:18:48Z</time>
      </trkpt>
      <trkpt lat="43.52045" lon="6.14697">
        <ele>330.83093261719</ele>
        <time>2013-06-15T13:19:10Z</time>
      </trkpt>
      <trkpt lat="43.52053" lon="6.14692">
        <ele>332.27282714844</ele>
        <time>2013-06-15T13:19:29Z</time>
      </trkpt>
      <trkpt lat="43.52058" lon="6.1468">
        <ele>333.23413085938</ele>
        <time>2013-06-15T13:19:42Z</time>
      </trkpt>
      <trkpt lat="43.52064" lon="6.14666">
        <ele>333.71472167969</ele>
        <time>2013-06-15T13:19:58Z</time>
      </trkpt>
      <trkpt lat="43.52075" lon="6.14656">
        <ele>333.71472167969</ele>
        <time>2013-06-15T13:20:14Z</time>
      </trkpt>
      <trkpt lat="43.52077" lon="6.14655">
        <ele>334.19543457031</ele>
        <time>2013-06-15T13:20:18Z</time>
      </trkpt>
      <trkpt lat="43.52087" lon="6.14647">
        <ele>334.19543457031</ele>
        <time>2013-06-15T13:20:32Z</time>
      </trkpt>
      <trkpt lat="43.52089" lon="6.14645">
        <ele>334.19543457031</ele>
        <time>2013-06-15T13:20:37Z</time>
      </trkpt>
      <trkpt lat="43.52093" lon="6.1464">
        <ele>334.19543457031</ele>
        <time>2013-06-15T13:20:42Z</time>
      </trkpt>
      <trkpt lat="43.52098" lon="6.14639">
        <ele>334.19543457031</ele>
        <time>2013-06-15T13:20:46Z</time>
      </trkpt>
      <trkpt lat="43.52114" lon="6.14629">
        <ele>332.75354003906</ele>
        <time>2013-06-15T13:21:03Z</time>
      </trkpt>
      <trkpt lat="43.52121" lon="6.14622">
        <ele>331.79211425781</ele>
        <time>2013-06-15T13:21:15Z</time>
      </trkpt>
      <trkpt lat="43.52118" lon="6.14604">
        <ele>330.35021972656</ele>
        <time>2013-06-15T13:21:32Z</time>
      </trkpt>
      <trkpt lat="43.52113" lon="6.14602">
        <ele>330.35021972656</ele>
        <time>2013-06-15T13:21:37Z</time>
      </trkpt>
      <trkpt lat="43.521" lon="6.14596">
        <ele>328.90832519531</ele>
        <time>2013-06-15T13:21:51Z</time>
      </trkpt>
      <trkpt lat="43.52098" lon="6.14596">
        <ele>328.90832519531</ele>
        <time>2013-06-15T13:21:52Z</time>
      </trkpt>
      <trkpt lat="43.52092" lon="6.14592">
        <ele>328.42761230469</ele>
        <time>2013-06-15T13:21:58Z</time>
      </trkpt>
      <trkpt lat="43.52076" lon="6.14593">
        <ele>326.98559570312</ele>
        <time>2013-06-15T13:22:16Z</time>
      </trkpt>
      <trkpt lat="43.52064" lon="6.14588">
        <ele>326.5048828125</ele>
        <time>2013-06-15T13:22:28Z</time>
      </trkpt>
      <trkpt lat="43.52049" lon="6.14586">
        <ele>325.54357910156</ele>
        <time>2013-06-15T13:22:42Z</time>
      </trkpt>
      <trkpt lat="43.52036" lon="6.14581">
        <ele>325.06298828125</ele>
        <time>2013-06-15T13:22:54Z</time>
      </trkpt>
      <trkpt lat="43.52028" lon="6.14581">
        <ele>324.1015625</ele>
        <time>2013-06-15T13:23:04Z</time>
      </trkpt>
      <trkpt lat="43.52024" lon="6.14578">
        <ele>323.62097167969</ele>
        <time>2013-06-15T13:23:09Z</time>
      </trkpt>
      <trkpt lat="43.52007" lon="6.14581">
        <ele>322.65966796875</ele>
        <time>2013-06-15T13:23:25Z</time>
      </trkpt>
      <trkpt lat="43.51996" lon="6.1458">
        <ele>321.69836425781</ele>
        <time>2013-06-15T13:23:39Z</time>
      </trkpt>
      <trkpt lat="43.51982" lon="6.14584">
        <ele>319.77563476562</ele>
        <time>2013-06-15T13:23:55Z</time>
      </trkpt>
      <trkpt lat="43.5197" lon="6.14596">
        <ele>318.81433105469</ele>
        <time>2013-06-15T13:24:08Z</time>
      </trkpt>
      <trkpt lat="43.51962" lon="6.14601">
        <ele>317.85302734375</ele>
        <time>2013-06-15T13:24:25Z</time>
      </trkpt>
      <trkpt lat="43.51958" lon="6.14603">
        <ele>316.89172363281</ele>
        <time>2013-06-15T13:24:54Z</time>
      </trkpt>
      <trkpt lat="43.51938" lon="6.14594">
        <ele>314.0078125</ele>
        <time>2013-06-15T13:25:15Z</time>
      </trkpt>
      <trkpt lat="43.51934" lon="6.14595">
        <ele>314.0078125</ele>
        <time>2013-06-15T13:25:17Z</time>
      </trkpt>
      <trkpt lat="43.51931" lon="6.14594">
        <ele>313.52722167969</ele>
        <time>2013-06-15T13:25:21Z</time>
      </trkpt>
      <trkpt lat="43.51917" lon="6.14589">
        <ele>311.12377929688</ele>
        <time>2013-06-15T13:25:35Z</time>
      </trkpt>
      <trkpt lat="43.51916" lon="6.14589">
        <ele>310.64306640625</ele>
        <time>2013-06-15T13:25:36Z</time>
      </trkpt>
      <trkpt lat="43.51902" lon="6.14587">
        <ele>309.201171875</ele>
        <time>2013-06-15T13:25:52Z</time>
      </trkpt>
      <trkpt lat="43.51894" lon="6.14582">
        <ele>308.23986816406</ele>
        <time>2013-06-15T13:26:02Z</time>
      </trkpt>
      <trkpt lat="43.51879" lon="6.14577">
        <ele>305.35595703125</ele>
        <time>2013-06-15T13:26:20Z</time>
      </trkpt>
      <trkpt lat="43.51865" lon="6.14575">
        <ele>301.51062011719</ele>
        <time>2013-06-15T13:26:35Z</time>
      </trkpt>
      <trkpt lat="43.51849" lon="6.14578">
        <ele>300.06872558594</ele>
        <time>2013-06-15T13:26:52Z</time>
      </trkpt>
      <trkpt lat="43.51839" lon="6.14579">
        <ele>296.7041015625</ele>
        <time>2013-06-15T13:27:07Z</time>
      </trkpt>
      <trkpt lat="43.51834" lon="6.14589">
        <ele>296.22351074219</ele>
        <time>2013-06-15T13:27:25Z</time>
      </trkpt>
      <trkpt lat="43.51835" lon="6.14592">
        <ele>296.22351074219</ele>
        <time>2013-06-15T13:27:27Z</time>
      </trkpt>
      <trkpt lat="43.51835" lon="6.14598">
        <ele>296.22351074219</ele>
        <time>2013-06-15T13:27:31Z</time>
      </trkpt>
      <trkpt lat="43.51837" lon="6.1461">
        <ele>296.22351074219</ele>
        <time>2013-06-15T13:27:39Z</time>
      </trkpt>
      <trkpt lat="43.51837" lon="6.14626">
        <ele>296.22351074219</ele>
        <time>2013-06-15T13:27:51Z</time>
      </trkpt>
      <trkpt lat="43.51836" lon="6.14648">
        <ele>294.78137207031</ele>
        <time>2013-06-15T13:28:07Z</time>
      </trkpt>
      <trkpt lat="43.51836" lon="6.1465">
        <ele>295.26196289062</ele>
        <time>2013-06-15T13:28:10Z</time>
      </trkpt>
      <trkpt lat="43.5183" lon="6.14667">
        <ele>292.37817382812</ele>
        <time>2013-06-15T13:28:24Z</time>
      </trkpt>
      <trkpt lat="43.51832" lon="6.14688">
        <ele>291.8974609375</ele>
        <time>2013-06-15T13:28:38Z</time>
      </trkpt>
      <trkpt lat="43.51836" lon="6.14698">
        <ele>291.8974609375</ele>
        <time>2013-06-15T13:28:55Z</time>
      </trkpt>
      <trkpt lat="43.51847" lon="6.14695">
        <ele>292.85876464844</ele>
        <time>2013-06-15T13:29:13Z</time>
      </trkpt>
      <trkpt lat="43.51847" lon="6.14702">
        <ele>292.37817382812</ele>
        <time>2013-06-15T13:30:03Z</time>
      </trkpt>
      <trkpt lat="43.51848" lon="6.14709">
        <ele>292.37817382812</ele>
        <time>2013-06-15T13:30:53Z</time>
      </trkpt>
      <trkpt lat="43.51846" lon="6.14705">
        <ele>292.37817382812</ele>
        <time>2013-06-15T13:31:00Z</time>
      </trkpt>
      <trkpt lat="43.5184" lon="6.14692">
        <ele>291.8974609375</ele>
        <time>2013-06-15T13:31:13Z</time>
      </trkpt>
      <trkpt lat="43.51829" lon="6.1468">
        <ele>291.41674804688</ele>
        <time>2013-06-15T13:31:26Z</time>
      </trkpt>
      <trkpt lat="43.51825" lon="6.14682">
        <ele>290.45556640625</ele>
        <time>2013-06-15T13:31:32Z</time>
      </trkpt>
      <trkpt lat="43.51821" lon="6.14689">
        <ele>290.45556640625</ele>
        <time>2013-06-15T13:31:38Z</time>
      </trkpt>
      <trkpt lat="43.51817" lon="6.14705">
        <ele>287.57141113281</ele>
        <time>2013-06-15T13:31:53Z</time>
      </trkpt>
      <trkpt lat="43.51816" lon="6.14722">
        <ele>285.16821289062</ele>
        <time>2013-06-15T13:32:07Z</time>
      </trkpt>
      <trkpt lat="43.51817" lon="6.14723">
        <ele>285.16821289062</ele>
        <time>2013-06-15T13:32:08Z</time>
      </trkpt>
      <trkpt lat="43.5182" lon="6.14735">
        <ele>284.68762207031</ele>
        <time>2013-06-15T13:32:17Z</time>
      </trkpt>
      <trkpt lat="43.51824" lon="6.14744">
        <ele>284.20690917969</ele>
        <time>2013-06-15T13:32:23Z</time>
      </trkpt>
      <trkpt lat="43.51826" lon="6.14748">
        <ele>283.72619628906</ele>
        <time>2013-06-15T13:32:26Z</time>
      </trkpt>
      <trkpt lat="43.51829" lon="6.14756">
        <ele>283.72619628906</ele>
        <time>2013-06-15T13:32:33Z</time>
      </trkpt>
      <trkpt lat="43.5183" lon="6.14762">
        <ele>284.20690917969</ele>
        <time>2013-06-15T13:32:38Z</time>
      </trkpt>
      <trkpt lat="43.51832" lon="6.14769">
        <ele>283.72619628906</ele>
        <time>2013-06-15T13:32:43Z</time>
      </trkpt>
      <trkpt lat="43.51837" lon="6.14781">
        <ele>283.72619628906</ele>
        <time>2013-06-15T13:32:53Z</time>
      </trkpt>
      <trkpt lat="43.51826" lon="6.14794">
        <ele>280.84240722656</ele>
        <time>2013-06-15T13:33:08Z</time>
      </trkpt>
      <trkpt lat="43.51825" lon="6.14794">
        <ele>280.84240722656</ele>
        <time>2013-06-15T13:33:09Z</time>
      </trkpt>
      <trkpt lat="43.51823" lon="6.14803">
        <ele>280.36169433594</ele>
        <time>2013-06-15T13:33:22Z</time>
      </trkpt>
      <trkpt lat="43.51831" lon="6.14815">
        <ele>281.80358886719</ele>
        <time>2013-06-15T13:33:49Z</time>
      </trkpt>
      <trkpt lat="43.51834" lon="6.14818">
        <ele>282.28430175781</ele>
        <time>2013-06-15T13:33:52Z</time>
      </trkpt>
      <trkpt lat="43.51838" lon="6.14821">
        <ele>282.28430175781</ele>
        <time>2013-06-15T13:33:55Z</time>
      </trkpt>
      <trkpt lat="43.51846" lon="6.14834">
        <ele>283.24560546875</ele>
        <time>2013-06-15T13:34:07Z</time>
      </trkpt>
      <trkpt lat="43.51853" lon="6.14847">
        <ele>283.72619628906</ele>
        <time>2013-06-15T13:34:20Z</time>
      </trkpt>
      <trkpt lat="43.51855" lon="6.1485">
        <ele>283.72619628906</ele>
        <time>2013-06-15T13:34:23Z</time>
      </trkpt>
      <trkpt lat="43.51868" lon="6.14858">
        <ele>283.72619628906</ele>
        <time>2013-06-15T13:34:36Z</time>
      </trkpt>
      <trkpt lat="43.51883" lon="6.14868">
        <ele>284.20690917969</ele>
        <time>2013-06-15T13:34:53Z</time>
      </trkpt>
      <trkpt lat="43.51903" lon="6.14873">
        <ele>284.20690917969</ele>
        <time>2013-06-15T13:35:14Z</time>
      </trkpt>
      <trkpt lat="43.51923" lon="6.14891">
        <ele>284.20690917969</ele>
        <time>2013-06-15T13:35:35Z</time>
      </trkpt>
      <trkpt lat="43.51934" lon="6.14903">
        <ele>284.68762207031</ele>
        <time>2013-06-15T13:35:50Z</time>
      </trkpt>
      <trkpt lat="43.51946" lon="6.14912">
        <ele>284.20690917969</ele>
        <time>2013-06-15T13:36:04Z</time>
      </trkpt>
      <trkpt lat="43.51962" lon="6.14921">
        <ele>283.72619628906</ele>
        <time>2013-06-15T13:36:23Z</time>
      </trkpt>
      <trkpt lat="43.51979" lon="6.14926">
        <ele>283.72619628906</ele>
        <time>2013-06-15T13:36:40Z</time>
      </trkpt>
      <trkpt lat="43.51991" lon="6.14925">
        <ele>283.72619628906</ele>
        <time>2013-06-15T13:36:52Z</time>
      </trkpt>
      <trkpt lat="43.52007" lon="6.14926">
        <ele>283.24560546875</ele>
        <time>2013-06-15T13:37:09Z</time>
      </trkpt>
      <trkpt lat="43.52024" lon="6.14927">
        <ele>282.76501464844</ele>
        <time>2013-06-15T13:37:24Z</time>
      </trkpt>
      <trkpt lat="43.52041" lon="6.14929">
        <ele>280.84240722656</ele>
        <time>2013-06-15T13:37:43Z</time>
      </trkpt>
      <trkpt lat="43.52062" lon="6.14922">
        <ele>280.36169433594</ele>
        <time>2013-06-15T13:38:00Z</time>
      </trkpt>
      <trkpt lat="43.52077" lon="6.14907">
        <ele>279.880859375</ele>
        <time>2013-06-15T13:38:14Z</time>
      </trkpt>
      <trkpt lat="43.52085" lon="6.14893">
        <ele>278.91967773438</ele>
        <time>2013-06-15T13:38:27Z</time>
      </trkpt>
      <trkpt lat="43.52099" lon="6.14894">
        <ele>275.55505371094</ele>
        <time>2013-06-15T13:38:44Z</time>
      </trkpt>
      <trkpt lat="43.52106" lon="6.14894">
        <ele>275.55505371094</ele>
        <time>2013-06-15T13:38:47Z</time>
      </trkpt>
      <trkpt lat="43.52121" lon="6.14896">
        <ele>272.67114257812</ele>
        <time>2013-06-15T13:39:04Z</time>
      </trkpt>
      <trkpt lat="43.52137" lon="6.14898">
        <ele>270.26770019531</ele>
        <time>2013-06-15T13:39:22Z</time>
      </trkpt>
      <trkpt lat="43.52152" lon="6.14898">
        <ele>268.34509277344</ele>
        <time>2013-06-15T13:39:39Z</time>
      </trkpt>
      <trkpt lat="43.52154" lon="6.14898">
        <ele>267.86450195312</ele>
        <time>2013-06-15T13:39:42Z</time>
      </trkpt>
      <trkpt lat="43.52174" lon="6.14893">
        <ele>265.46130371094</ele>
        <time>2013-06-15T13:40:02Z</time>
      </trkpt>
      <trkpt lat="43.52187" lon="6.14892">
        <ele>263.53857421875</ele>
        <time>2013-06-15T13:40:20Z</time>
      </trkpt>
      <trkpt lat="43.52204" lon="6.14894">
        <ele>261.61596679688</ele>
        <time>2013-06-15T13:40:38Z</time>
      </trkpt>
      <trkpt lat="43.5222" lon="6.14901">
        <ele>258.73193359375</ele>
        <time>2013-06-15T13:40:55Z</time>
      </trkpt>
      <trkpt lat="43.52225" lon="6.14902">
        <ele>258.73193359375</ele>
        <time>2013-06-15T13:40:59Z</time>
      </trkpt>
      <trkpt lat="43.52228" lon="6.14904">
        <ele>258.25134277344</ele>
        <time>2013-06-15T13:41:02Z</time>
      </trkpt>
      <trkpt lat="43.52238" lon="6.149">
        <ele>256.80932617188</ele>
        <time>2013-06-15T13:41:17Z</time>
      </trkpt>
      <trkpt lat="43.52257" lon="6.14894">
        <ele>254.88659667969</ele>
        <time>2013-06-15T13:41:36Z</time>
      </trkpt>
      <trkpt lat="43.52271" lon="6.14893">
        <ele>252.4833984375</ele>
        <time>2013-06-15T13:41:54Z</time>
      </trkpt>
      <trkpt lat="43.52289" lon="6.14897">
        <ele>249.59948730469</ele>
        <time>2013-06-15T13:42:16Z</time>
      </trkpt>
      <trkpt lat="43.52305" lon="6.14903">
        <ele>246.71545410156</ele>
        <time>2013-06-15T13:42:35Z</time>
      </trkpt>
      <trkpt lat="43.52317" lon="6.14913">
        <ele>243.83154296875</ele>
        <time>2013-06-15T13:42:51Z</time>
      </trkpt>
      <trkpt lat="43.5232" lon="6.14915">
        <ele>243.83154296875</ele>
        <time>2013-06-15T13:42:54Z</time>
      </trkpt>
      <trkpt lat="43.5233" lon="6.14917">
        <ele>241.42822265625</ele>
        <time>2013-06-15T13:43:08Z</time>
      </trkpt>
      <trkpt lat="43.5235" lon="6.1492">
        <ele>238.54431152344</ele>
        <time>2013-06-15T13:43:28Z</time>
      </trkpt>
      <trkpt lat="43.52362" lon="6.14927">
        <ele>237.10229492188</ele>
        <time>2013-06-15T13:43:44Z</time>
      </trkpt>
      <trkpt lat="43.52375" lon="6.14933">
        <ele>236.14099121094</ele>
        <time>2013-06-15T13:43:57Z</time>
      </trkpt>
      <trkpt lat="43.52375" lon="6.14934">
        <ele>235.66027832031</ele>
        <time>2013-06-15T13:44:13Z</time>
      </trkpt>
      <trkpt lat="43.52388" lon="6.14933">
        <ele>235.1796875</ele>
        <time>2013-06-15T13:44:31Z</time>
      </trkpt>
      <trkpt lat="43.52409" lon="6.14933">
        <ele>234.69909667969</ele>
        <time>2013-06-15T13:44:52Z</time>
      </trkpt>
      <trkpt lat="43.52417" lon="6.14933">
        <ele>234.21838378906</ele>
        <time>2013-06-15T13:45:00Z</time>
      </trkpt>
      <trkpt lat="43.52429" lon="6.14932">
        <ele>234.69909667969</ele>
        <time>2013-06-15T13:45:15Z</time>
      </trkpt>
      <trkpt lat="43.52432" lon="6.14932">
        <ele>234.69909667969</ele>
        <time>2013-06-15T13:45:17Z</time>
      </trkpt>
      <trkpt lat="43.52455" lon="6.14931">
        <ele>235.1796875</ele>
        <time>2013-06-15T13:45:33Z</time>
      </trkpt>
      <trkpt lat="43.52467" lon="6.14935">
        <ele>234.69909667969</ele>
        <time>2013-06-15T13:45:45Z</time>
      </trkpt>
      <trkpt lat="43.5248" lon="6.1493">
        <ele>234.69909667969</ele>
        <time>2013-06-15T13:45:59Z</time>
      </trkpt>
      <trkpt lat="43.52493" lon="6.14934">
        <ele>233.73767089844</ele>
        <time>2013-06-15T13:46:12Z</time>
      </trkpt>
      <trkpt lat="43.52497" lon="6.1493">
        <ele>233.25708007812</ele>
        <time>2013-06-15T13:46:41Z</time>
      </trkpt>
      <trkpt lat="43.52504" lon="6.14932">
        <ele>232.29577636719</ele>
        <time>2013-06-15T13:46:50Z</time>
      </trkpt>
      <trkpt lat="43.52518" lon="6.14932">
        <ele>229.89233398438</ele>
        <time>2013-06-15T13:47:04Z</time>
      </trkpt>
      <trkpt lat="43.52532" lon="6.14917">
        <ele>227.00854492188</ele>
        <time>2013-06-15T13:47:22Z</time>
      </trkpt>
      <trkpt lat="43.52546" lon="6.14911">
        <ele>224.12451171875</ele>
        <time>2013-06-15T13:47:40Z</time>
      </trkpt>
      <trkpt lat="43.52555" lon="6.14904">
        <ele>223.64379882812</ele>
        <time>2013-06-15T13:47:53Z</time>
      </trkpt>
      <trkpt lat="43.52559" lon="6.14899">
        <ele>223.16320800781</ele>
        <time>2013-06-15T13:47:58Z</time>
      </trkpt>
      <trkpt lat="43.52567" lon="6.14894">
        <ele>223.16320800781</ele>
        <time>2013-06-15T13:48:13Z</time>
      </trkpt>
      <trkpt lat="43.52586" lon="6.14896">
        <ele>223.16320800781</ele>
        <time>2013-06-15T13:48:33Z</time>
      </trkpt>
      <trkpt lat="43.52596" lon="6.14901">
        <ele>223.64379882812</ele>
        <time>2013-06-15T13:48:50Z</time>
      </trkpt>
      <trkpt lat="43.52592" lon="6.14902">
        <ele>223.64379882812</ele>
        <time>2013-06-15T13:49:23Z</time>
      </trkpt>
      <trkpt lat="43.52595" lon="6.14902">
        <ele>227.9697265625</ele>
        <time>2013-06-15T13:49:35Z</time>
      </trkpt>
      <trkpt lat="43.52595" lon="6.14902">
        <ele>224.12451171875</ele>
        <time>2013-06-15T13:49:36Z</time>
      </trkpt>
      <trkpt lat="43.52595" lon="6.14902">
        <ele>223.64379882812</ele>
        <time>2013-06-15T13:49:38Z</time>
      </trkpt>
      <trkpt lat="43.52609" lon="6.14921">
        <ele>224.12451171875</ele>
        <time>2013-06-15T13:50:36Z</time>
      </trkpt>
      <trkpt lat="43.52635" lon="6.14939">
        <ele>226.52783203125</ele>
        <time>2013-06-15T13:51:03Z</time>
      </trkpt>
      <trkpt lat="43.52649" lon="6.14947">
        <ele>228.45043945312</ele>
        <time>2013-06-15T13:51:26Z</time>
      </trkpt>
      <trkpt lat="43.52662" lon="6.14942">
        <ele>231.33435058594</ele>
        <time>2013-06-15T13:51:46Z</time>
      </trkpt>
      <trkpt lat="43.52672" lon="6.14929">
        <ele>231.81494140625</ele>
        <time>2013-06-15T13:52:03Z</time>
      </trkpt>
      <trkpt lat="43.52688" lon="6.14925">
        <ele>232.29577636719</ele>
        <time>2013-06-15T13:52:25Z</time>
      </trkpt>
      <trkpt lat="43.5271" lon="6.14925">
        <ele>233.25708007812</ele>
        <time>2013-06-15T13:52:44Z</time>
      </trkpt>
      <trkpt lat="43.52733" lon="6.14917">
        <ele>233.73767089844</ele>
        <time>2013-06-15T13:53:06Z</time>
      </trkpt>
      <trkpt lat="43.5274" lon="6.14897">
        <ele>236.14099121094</ele>
        <time>2013-06-15T13:53:24Z</time>
      </trkpt>
      <trkpt lat="43.52742" lon="6.14892">
        <ele>239.02490234375</ele>
        <time>2013-06-15T13:53:42Z</time>
      </trkpt>
      <trkpt lat="43.52745" lon="6.14863">
        <ele>241.42822265625</ele>
        <time>2013-06-15T13:54:01Z</time>
      </trkpt>
    </trkseg>
  </trk>
</gpx>